<?xml version="1.0" encoding="UTF-8" standalone="no" ?>
<gpx xmlns="http://www.topografix.com/GPX/1/1" xmlns:xsi="http://www.w3.org/2001/XMLSchema-instance" xsi:schemaLocation="http://www.topografix.com/GPX/1/1 http://www.topografix.com/GPX/1/1/gpx.xsd" version="1.1" creator="VisuGPX - https://www.visugpx.com">
  <metadata>
    <name>250617 Ugny-Boismont</name>
    <desc><![CDATA[Parcours roulant sans difficulté technique]]></desc>
  </metadata>
  <trk>
    <name><![CDATA[250617 Ugny Boismont]]></name>
    <trkseg>
      <trkpt lat="49.46738" lon="5.70046">
        <ele>306.31726074219</ele>
        <time>2017-06-25T06:46:43Z</time>
      </trkpt>
      <trkpt lat="49.46739" lon="5.70045">
        <ele>306.7978515625</ele>
        <time>2017-06-25T06:46:46Z</time>
      </trkpt>
      <trkpt lat="49.46742" lon="5.70048">
        <ele>306.31726074219</ele>
        <time>2017-06-25T06:46:49Z</time>
      </trkpt>
      <trkpt lat="49.4674" lon="5.70059">
        <ele>306.31726074219</ele>
        <time>2017-06-25T06:46:54Z</time>
      </trkpt>
      <trkpt lat="49.4671" lon="5.70092">
        <ele>303.91394042969</ele>
        <time>2017-06-25T06:47:12Z</time>
      </trkpt>
      <trkpt lat="49.46673" lon="5.70131">
        <ele>303.91394042969</ele>
        <time>2017-06-25T06:47:32Z</time>
      </trkpt>
      <trkpt lat="49.46639" lon="5.70166">
        <ele>302.95251464844</ele>
        <time>2017-06-25T06:47:51Z</time>
      </trkpt>
      <trkpt lat="49.46602" lon="5.70201">
        <ele>308.72045898438</ele>
        <time>2017-06-25T06:48:11Z</time>
      </trkpt>
      <trkpt lat="49.4657" lon="5.70232">
        <ele>311.12377929688</ele>
        <time>2017-06-25T06:48:29Z</time>
      </trkpt>
      <trkpt lat="49.46529" lon="5.70272">
        <ele>311.12377929688</ele>
        <time>2017-06-25T06:48:50Z</time>
      </trkpt>
      <trkpt lat="49.46489" lon="5.70314">
        <ele>313.04650878906</ele>
        <time>2017-06-25T06:49:09Z</time>
      </trkpt>
      <trkpt lat="49.46448" lon="5.70352">
        <ele>315.44982910156</ele>
        <time>2017-06-25T06:49:28Z</time>
      </trkpt>
      <trkpt lat="49.46428" lon="5.70373">
        <ele>315.93041992188</ele>
        <time>2017-06-25T06:49:41Z</time>
      </trkpt>
      <trkpt lat="49.46397" lon="5.70403">
        <ele>316.89172363281</ele>
        <time>2017-06-25T06:50:01Z</time>
      </trkpt>
      <trkpt lat="49.46368" lon="5.70432">
        <ele>317.37243652344</ele>
        <time>2017-06-25T06:50:19Z</time>
      </trkpt>
      <trkpt lat="49.46326" lon="5.70485">
        <ele>315.93041992188</ele>
        <time>2017-06-25T06:50:39Z</time>
      </trkpt>
      <trkpt lat="49.46291" lon="5.70543">
        <ele>315.44982910156</ele>
        <time>2017-06-25T06:50:56Z</time>
      </trkpt>
      <trkpt lat="49.46225" lon="5.70615">
        <ele>316.41101074219</ele>
        <time>2017-06-25T06:51:21Z</time>
      </trkpt>
      <trkpt lat="49.46231" lon="5.70622">
        <ele>315.3</ele>
        <time>2017-06-27T16:00:02Z</time>
      </trkpt>
      <trkpt lat="49.4622" lon="5.70638">
        <ele>314.9</ele>
      </trkpt>
      <trkpt lat="49.46207" lon="5.70652">
        <ele>314.4</ele>
      </trkpt>
      <trkpt lat="49.4619" lon="5.70659">
        <ele>313.7</ele>
      </trkpt>
      <trkpt lat="49.46174" lon="5.70665">
        <ele>312.6</ele>
      </trkpt>
      <trkpt lat="49.46159" lon="5.70675">
        <ele>311.4</ele>
      </trkpt>
      <trkpt lat="49.46143" lon="5.70681">
        <ele>310.6</ele>
      </trkpt>
      <trkpt lat="49.4613" lon="5.70697">
        <ele>309.3</ele>
      </trkpt>
      <trkpt lat="49.46114" lon="5.70708">
        <ele>307.7</ele>
      </trkpt>
      <trkpt lat="49.46097" lon="5.70715">
        <ele>306.3</ele>
      </trkpt>
      <trkpt lat="49.4608" lon="5.70718">
        <ele>304.7</ele>
      </trkpt>
      <trkpt lat="49.46065" lon="5.70725">
        <ele>303</ele>
      </trkpt>
      <trkpt lat="49.46053" lon="5.70737">
        <ele>301.9</ele>
      </trkpt>
      <trkpt lat="49.4604" lon="5.7075">
        <ele>301.4</ele>
      </trkpt>
      <trkpt lat="49.46029" lon="5.70759">
        <ele>301.4</ele>
      </trkpt>
      <trkpt lat="49.46012" lon="5.70766">
        <ele>301.9</ele>
      </trkpt>
      <trkpt lat="49.45997" lon="5.70775">
        <ele>302.9</ele>
      </trkpt>
      <trkpt lat="49.45979" lon="5.70784">
        <ele>304.2</ele>
      </trkpt>
      <trkpt lat="49.45968" lon="5.70795">
        <ele>305.4</ele>
      </trkpt>
      <trkpt lat="49.45955" lon="5.70811">
        <ele>306.9</ele>
      </trkpt>
      <trkpt lat="49.45941" lon="5.70821">
        <ele>307.6</ele>
      </trkpt>
      <trkpt lat="49.45931" lon="5.70835">
        <ele>308.5</ele>
      </trkpt>
      <trkpt lat="49.45918" lon="5.70845">
        <ele>309</ele>
      </trkpt>
      <trkpt lat="49.45903" lon="5.70849">
        <ele>308.3</ele>
      </trkpt>
      <trkpt lat="49.45904" lon="5.70849">
        <ele>308.4</ele>
      </trkpt>
      <trkpt lat="49.45893" lon="5.70844">
        <ele>325.06298828125</ele>
        <time>2017-06-25T06:53:04Z</time>
      </trkpt>
      <trkpt lat="49.45901" lon="5.70847">
        <ele>317.85302734375</ele>
        <time>2017-06-25T06:53:22Z</time>
      </trkpt>
      <trkpt lat="49.459" lon="5.70867">
        <ele>316.89172363281</ele>
        <time>2017-06-25T06:53:30Z</time>
      </trkpt>
      <trkpt lat="49.45887" lon="5.70902">
        <ele>316.41101074219</ele>
        <time>2017-06-25T06:53:37Z</time>
      </trkpt>
      <trkpt lat="49.45881" lon="5.70929">
        <ele>314.96911621094</ele>
        <time>2017-06-25T06:53:41Z</time>
      </trkpt>
      <trkpt lat="49.45865" lon="5.71004">
        <ele>314.96911621094</ele>
        <time>2017-06-25T06:53:52Z</time>
      </trkpt>
      <trkpt lat="49.45867" lon="5.7114">
        <ele>320.25634765625</ele>
        <time>2017-06-25T06:54:16Z</time>
      </trkpt>
      <trkpt lat="49.45873" lon="5.71275">
        <ele>323.62097167969</ele>
        <time>2017-06-25T06:54:41Z</time>
      </trkpt>
      <trkpt lat="49.45896" lon="5.71362">
        <ele>325.06298828125</ele>
        <time>2017-06-25T06:54:59Z</time>
      </trkpt>
      <trkpt lat="49.45928" lon="5.71433">
        <ele>321.69836425781</ele>
        <time>2017-06-25T06:55:17Z</time>
      </trkpt>
      <trkpt lat="49.45942" lon="5.71501">
        <ele>319.29504394531</ele>
        <time>2017-06-25T06:55:32Z</time>
      </trkpt>
      <trkpt lat="49.4594" lon="5.71511">
        <ele>319.29504394531</ele>
        <time>2017-06-25T06:55:34Z</time>
      </trkpt>
      <trkpt lat="49.45946" lon="5.71532">
        <ele>319.29504394531</ele>
        <time>2017-06-25T06:55:38Z</time>
      </trkpt>
      <trkpt lat="49.45992" lon="5.71602">
        <ele>316.89172363281</ele>
        <time>2017-06-25T06:56:01Z</time>
      </trkpt>
      <trkpt lat="49.46035" lon="5.7167">
        <ele>318.33361816406</ele>
        <time>2017-06-25T06:56:19Z</time>
      </trkpt>
      <trkpt lat="49.46109" lon="5.71785">
        <ele>320.25634765625</ele>
        <time>2017-06-25T06:56:44Z</time>
      </trkpt>
      <trkpt lat="49.46178" lon="5.71894">
        <ele>323.14038085938</ele>
        <time>2017-06-25T06:57:08Z</time>
      </trkpt>
      <trkpt lat="49.46265" lon="5.72031">
        <ele>327.94677734375</ele>
        <time>2017-06-25T06:57:41Z</time>
      </trkpt>
      <trkpt lat="49.46329" lon="5.72137">
        <ele>330.35021972656</ele>
        <time>2017-06-25T06:58:05Z</time>
      </trkpt>
      <trkpt lat="49.46353" lon="5.72208">
        <ele>332.75354003906</ele>
        <time>2017-06-25T06:58:19Z</time>
      </trkpt>
      <trkpt lat="49.46341" lon="5.72221">
        <ele>333.23413085938</ele>
        <time>2017-06-25T06:58:23Z</time>
      </trkpt>
      <trkpt lat="49.46256" lon="5.72265">
        <ele>333.71472167969</ele>
        <time>2017-06-25T06:58:47Z</time>
      </trkpt>
      <trkpt lat="49.46193" lon="5.72301">
        <ele>331.3115234375</ele>
        <time>2017-06-25T06:59:04Z</time>
      </trkpt>
      <trkpt lat="49.46168" lon="5.72321">
        <ele>330.35021972656</ele>
        <time>2017-06-25T06:59:09Z</time>
      </trkpt>
      <trkpt lat="49.46141" lon="5.72326">
        <ele>329.38891601562</ele>
        <time>2017-06-25T06:59:13Z</time>
      </trkpt>
      <trkpt lat="49.46139" lon="5.72323">
        <ele>328</ele>
        <time>2017-06-27T16:01:17Z</time>
      </trkpt>
      <trkpt lat="49.4612" lon="5.72327">
        <ele>326.7</ele>
      </trkpt>
      <trkpt lat="49.46104" lon="5.72336">
        <ele>325.7</ele>
      </trkpt>
      <trkpt lat="49.46091" lon="5.72345">
        <ele>325.2</ele>
      </trkpt>
      <trkpt lat="49.46077" lon="5.72359">
        <ele>324.7</ele>
      </trkpt>
      <trkpt lat="49.46062" lon="5.72371">
        <ele>324.6</ele>
      </trkpt>
      <trkpt lat="49.46043" lon="5.72385">
        <ele>324.8</ele>
      </trkpt>
      <trkpt lat="49.46027" lon="5.72397">
        <ele>325</ele>
      </trkpt>
      <trkpt lat="49.46004" lon="5.72407">
        <ele>324.7</ele>
      </trkpt>
      <trkpt lat="49.45983" lon="5.72419">
        <ele>326.4</ele>
      </trkpt>
      <trkpt lat="49.45963" lon="5.72433">
        <ele>328.3</ele>
      </trkpt>
      <trkpt lat="49.45938" lon="5.72447">
        <ele>330.3</ele>
      </trkpt>
      <trkpt lat="49.4591" lon="5.72461">
        <ele>331.8</ele>
      </trkpt>
      <trkpt lat="49.45891" lon="5.72474">
        <ele>332.9</ele>
      </trkpt>
      <trkpt lat="49.45874" lon="5.72488">
        <ele>333.3</ele>
      </trkpt>
      <trkpt lat="49.45851" lon="5.72502">
        <ele>333.6</ele>
      </trkpt>
      <trkpt lat="49.45835" lon="5.72513">
        <ele>333.1</ele>
      </trkpt>
      <trkpt lat="49.45819" lon="5.72527">
        <ele>333</ele>
      </trkpt>
      <trkpt lat="49.45796" lon="5.72537">
        <ele>332.8</ele>
      </trkpt>
      <trkpt lat="49.45776" lon="5.72552">
        <ele>332.9</ele>
      </trkpt>
      <trkpt lat="49.45751" lon="5.72569">
        <ele>333.5</ele>
      </trkpt>
      <trkpt lat="49.45735" lon="5.72583">
        <ele>334</ele>
      </trkpt>
      <trkpt lat="49.45718" lon="5.726">
        <ele>334.5</ele>
      </trkpt>
      <trkpt lat="49.45699" lon="5.72614">
        <ele>334.2</ele>
      </trkpt>
      <trkpt lat="49.45684" lon="5.72629">
        <ele>334.3</ele>
      </trkpt>
      <trkpt lat="49.45659" lon="5.72639">
        <ele>334</ele>
      </trkpt>
      <trkpt lat="49.45642" lon="5.72649">
        <ele>334</ele>
      </trkpt>
      <trkpt lat="49.45623" lon="5.7266">
        <ele>333.3</ele>
      </trkpt>
      <trkpt lat="49.456" lon="5.72673">
        <ele>332.6</ele>
      </trkpt>
      <trkpt lat="49.45578" lon="5.72691">
        <ele>331.8</ele>
      </trkpt>
      <trkpt lat="49.45564" lon="5.72708">
        <ele>331.8</ele>
      </trkpt>
      <trkpt lat="49.45549" lon="5.72732">
        <ele>332.3</ele>
      </trkpt>
      <trkpt lat="49.45535" lon="5.72756">
        <ele>332.5</ele>
      </trkpt>
      <trkpt lat="49.45522" lon="5.72774">
        <ele>332.7</ele>
      </trkpt>
      <trkpt lat="49.45515" lon="5.72795">
        <ele>332.9</ele>
      </trkpt>
      <trkpt lat="49.45506" lon="5.72812">
        <ele>332.6</ele>
      </trkpt>
      <trkpt lat="49.45498" lon="5.72826">
        <ele>332.6</ele>
      </trkpt>
      <trkpt lat="49.45498" lon="5.72837">
        <ele>333</ele>
      </trkpt>
      <trkpt lat="49.455" lon="5.72836">
        <ele>333.23413085938</ele>
        <time>2017-06-25T07:03:20Z</time>
      </trkpt>
      <trkpt lat="49.45468" lon="5.72889">
        <ele>332.75354003906</ele>
        <time>2017-06-25T07:03:35Z</time>
      </trkpt>
      <trkpt lat="49.45406" lon="5.72978">
        <ele>333.23413085938</ele>
        <time>2017-06-25T07:03:58Z</time>
      </trkpt>
      <trkpt lat="49.45324" lon="5.73065">
        <ele>329.38891601562</ele>
        <time>2017-06-25T07:04:23Z</time>
      </trkpt>
      <trkpt lat="49.45277" lon="5.73089">
        <ele>328.42761230469</ele>
        <time>2017-06-25T07:04:33Z</time>
      </trkpt>
      <trkpt lat="49.45221" lon="5.73094">
        <ele>330.35021972656</ele>
        <time>2017-06-25T07:04:50Z</time>
      </trkpt>
      <trkpt lat="49.45169" lon="5.73099">
        <ele>334.19543457031</ele>
        <time>2017-06-25T07:05:11Z</time>
      </trkpt>
      <trkpt lat="49.45142" lon="5.73132">
        <ele>336.59887695312</ele>
        <time>2017-06-25T07:05:28Z</time>
      </trkpt>
      <trkpt lat="49.45135" lon="5.73155">
        <ele>337.07946777344</ele>
        <time>2017-06-25T07:05:36Z</time>
      </trkpt>
      <trkpt lat="49.45125" lon="5.73208">
        <ele>338.521484375</ele>
        <time>2017-06-25T07:05:53Z</time>
      </trkpt>
      <trkpt lat="49.45111" lon="5.73272">
        <ele>342.84729003906</ele>
        <time>2017-06-25T07:06:12Z</time>
      </trkpt>
      <trkpt lat="49.45088" lon="5.73346">
        <ele>346.21203613281</ele>
        <time>2017-06-25T07:06:35Z</time>
      </trkpt>
      <trkpt lat="49.45058" lon="5.73415">
        <ele>345.25061035156</ele>
        <time>2017-06-25T07:06:46Z</time>
      </trkpt>
      <trkpt lat="49.45049" lon="5.73446">
        <ele>343.80859375</ele>
        <time>2017-06-25T07:06:49Z</time>
      </trkpt>
      <trkpt lat="49.4506" lon="5.73509">
        <ele>343.80859375</ele>
        <time>2017-06-25T07:06:56Z</time>
      </trkpt>
      <trkpt lat="49.45068" lon="5.73529">
        <ele>343.80859375</ele>
        <time>2017-06-25T07:06:59Z</time>
      </trkpt>
      <trkpt lat="49.45098" lon="5.73621">
        <ele>342.84729003906</ele>
        <time>2017-06-25T07:07:18Z</time>
      </trkpt>
      <trkpt lat="49.45143" lon="5.7374">
        <ele>343.32788085938</ele>
        <time>2017-06-25T07:07:40Z</time>
      </trkpt>
      <trkpt lat="49.45199" lon="5.73835">
        <ele>345.25061035156</ele>
        <time>2017-06-25T07:08:02Z</time>
      </trkpt>
      <trkpt lat="49.45266" lon="5.73903">
        <ele>347.65393066406</ele>
        <time>2017-06-25T07:08:24Z</time>
      </trkpt>
      <trkpt lat="49.45322" lon="5.73972">
        <ele>347.17321777344</ele>
        <time>2017-06-25T07:08:43Z</time>
      </trkpt>
      <trkpt lat="49.45376" lon="5.74062">
        <ele>349.09582519531</ele>
        <time>2017-06-25T07:09:04Z</time>
      </trkpt>
      <trkpt lat="49.45411" lon="5.74168">
        <ele>347.65393066406</ele>
        <time>2017-06-25T07:09:24Z</time>
      </trkpt>
      <trkpt lat="49.45433" lon="5.74258">
        <ele>344.28942871094</ele>
        <time>2017-06-25T07:09:37Z</time>
      </trkpt>
      <trkpt lat="49.45426" lon="5.74376">
        <ele>343.80859375</ele>
        <time>2017-06-25T07:09:53Z</time>
      </trkpt>
      <trkpt lat="49.45423" lon="5.7439">
        <ele>343.80859375</ele>
        <time>2017-06-25T07:09:55Z</time>
      </trkpt>
      <trkpt lat="49.45409" lon="5.74421">
        <ele>343.80859375</ele>
        <time>2017-06-25T07:10:00Z</time>
      </trkpt>
      <trkpt lat="49.45393" lon="5.7444">
        <ele>344.28942871094</ele>
        <time>2017-06-25T07:10:04Z</time>
      </trkpt>
      <trkpt lat="49.4531" lon="5.74524">
        <ele>341.88598632812</ele>
        <time>2017-06-25T07:10:25Z</time>
      </trkpt>
      <trkpt lat="49.45288" lon="5.74532">
        <ele>341.4052734375</ele>
        <time>2017-06-25T07:10:30Z</time>
      </trkpt>
      <trkpt lat="49.45182" lon="5.74484">
        <ele>337.07946777344</ele>
        <time>2017-06-25T07:10:51Z</time>
      </trkpt>
      <trkpt lat="49.45102" lon="5.74415">
        <ele>331.3115234375</ele>
        <time>2017-06-25T07:11:07Z</time>
      </trkpt>
      <trkpt lat="49.4506" lon="5.74412">
        <ele>330.35021972656</ele>
        <time>2017-06-25T07:11:14Z</time>
      </trkpt>
      <trkpt lat="49.44946" lon="5.74503">
        <ele>324.1015625</ele>
        <time>2017-06-25T07:11:32Z</time>
      </trkpt>
      <trkpt lat="49.44867" lon="5.74592">
        <ele>323.62097167969</ele>
        <time>2017-06-25T07:11:48Z</time>
      </trkpt>
      <trkpt lat="49.44759" lon="5.74736">
        <ele>326.02416992188</ele>
        <time>2017-06-25T07:12:12Z</time>
      </trkpt>
      <trkpt lat="49.44683" lon="5.74899">
        <ele>329.38891601562</ele>
        <time>2017-06-25T07:12:37Z</time>
      </trkpt>
      <trkpt lat="49.44623" lon="5.75">
        <ele>332.75354003906</ele>
        <time>2017-06-25T07:12:57Z</time>
      </trkpt>
      <trkpt lat="49.44531" lon="5.75112">
        <ele>335.15673828125</ele>
        <time>2017-06-25T07:13:24Z</time>
      </trkpt>
      <trkpt lat="49.44446" lon="5.75238">
        <ele>334.67614746094</ele>
        <time>2017-06-25T07:13:49Z</time>
      </trkpt>
      <trkpt lat="49.44344" lon="5.7536">
        <ele>336.59887695312</ele>
        <time>2017-06-25T07:14:15Z</time>
      </trkpt>
      <trkpt lat="49.44249" lon="5.75434">
        <ele>337.56005859375</ele>
        <time>2017-06-25T07:14:37Z</time>
      </trkpt>
      <trkpt lat="49.44164" lon="5.75529">
        <ele>336.59887695312</ele>
        <time>2017-06-25T07:14:58Z</time>
      </trkpt>
      <trkpt lat="49.44051" lon="5.75588">
        <ele>333.71472167969</ele>
        <time>2017-06-25T07:15:20Z</time>
      </trkpt>
      <trkpt lat="49.44041" lon="5.7559">
        <ele>333.23413085938</ele>
        <time>2017-06-25T07:15:22Z</time>
      </trkpt>
      <trkpt lat="49.43947" lon="5.75566">
        <ele>329.38891601562</ele>
        <time>2017-06-25T07:15:40Z</time>
      </trkpt>
      <trkpt lat="49.43814" lon="5.75529">
        <ele>326.5048828125</ele>
        <time>2017-06-25T07:16:05Z</time>
      </trkpt>
      <trkpt lat="49.43733" lon="5.75551">
        <ele>323.14038085938</ele>
        <time>2017-06-25T07:16:20Z</time>
      </trkpt>
      <trkpt lat="49.43607" lon="5.75608">
        <ele>316.89172363281</ele>
        <time>2017-06-25T07:16:40Z</time>
      </trkpt>
      <trkpt lat="49.43556" lon="5.75625">
        <ele>314.48840332031</ele>
        <time>2017-06-25T07:16:51Z</time>
      </trkpt>
      <trkpt lat="49.43548" lon="5.75608">
        <ele>314.96911621094</ele>
        <time>2017-06-25T07:16:55Z</time>
      </trkpt>
      <trkpt lat="49.43544" lon="5.75532">
        <ele>318.33361816406</ele>
        <time>2017-06-25T07:17:13Z</time>
      </trkpt>
      <trkpt lat="49.43553" lon="5.75501">
        <ele>321.69836425781</ele>
        <time>2017-06-25T07:17:22Z</time>
      </trkpt>
      <trkpt lat="49.43566" lon="5.75436">
        <ele>324.58227539062</ele>
        <time>2017-06-25T07:17:38Z</time>
      </trkpt>
      <trkpt lat="49.43567" lon="5.75334">
        <ele>326.02416992188</ele>
        <time>2017-06-25T07:18:00Z</time>
      </trkpt>
      <trkpt lat="49.43538" lon="5.75239">
        <ele>325.06298828125</ele>
        <time>2017-06-25T07:18:19Z</time>
      </trkpt>
      <trkpt lat="49.43532" lon="5.75223">
        <ele>324.58227539062</ele>
        <time>2017-06-25T07:18:22Z</time>
      </trkpt>
      <trkpt lat="49.43535" lon="5.7518">
        <ele>324.58227539062</ele>
        <time>2017-06-25T07:18:29Z</time>
      </trkpt>
      <trkpt lat="49.43584" lon="5.75042">
        <ele>323.62097167969</ele>
        <time>2017-06-25T07:18:53Z</time>
      </trkpt>
      <trkpt lat="49.43626" lon="5.74876">
        <ele>321.69836425781</ele>
        <time>2017-06-25T07:19:20Z</time>
      </trkpt>
      <trkpt lat="49.43667" lon="5.74719">
        <ele>320.25634765625</ele>
        <time>2017-06-25T07:19:45Z</time>
      </trkpt>
      <trkpt lat="49.43672" lon="5.74694">
        <ele>320.25634765625</ele>
        <time>2017-06-25T07:19:49Z</time>
      </trkpt>
      <trkpt lat="49.43673" lon="5.74681">
        <ele>320.25634765625</ele>
        <time>2017-06-25T07:19:51Z</time>
      </trkpt>
      <trkpt lat="49.43657" lon="5.74554">
        <ele>315.93041992188</ele>
        <time>2017-06-25T07:20:09Z</time>
      </trkpt>
      <trkpt lat="49.43653" lon="5.74503">
        <ele>314.48840332031</ele>
        <time>2017-06-25T07:20:14Z</time>
      </trkpt>
      <trkpt lat="49.43662" lon="5.74445">
        <ele>310.16247558594</ele>
        <time>2017-06-25T07:20:19Z</time>
      </trkpt>
      <trkpt lat="49.43736" lon="5.74297">
        <ele>297.18469238281</ele>
        <time>2017-06-25T07:20:30Z</time>
      </trkpt>
      <trkpt lat="49.43744" lon="5.74282">
        <ele>296.22351074219</ele>
        <time>2017-06-25T07:20:31Z</time>
      </trkpt>
      <trkpt lat="49.43745" lon="5.74216">
        <ele>296.7041015625</ele>
        <time>2017-06-25T07:20:36Z</time>
      </trkpt>
      <trkpt lat="49.43729" lon="5.74211">
        <ele>298.14611816406</ele>
        <time>2017-06-25T07:20:38Z</time>
      </trkpt>
      <trkpt lat="49.43648" lon="5.74215">
        <ele>304.39465332031</ele>
        <time>2017-06-25T07:20:53Z</time>
      </trkpt>
      <trkpt lat="49.43585" lon="5.74199">
        <ele>312.56579589844</ele>
        <time>2017-06-25T07:21:13Z</time>
      </trkpt>
      <trkpt lat="49.43532" lon="5.74168">
        <ele>316.41101074219</ele>
        <time>2017-06-25T07:21:32Z</time>
      </trkpt>
      <trkpt lat="49.43496" lon="5.74096">
        <ele>316.89172363281</ele>
        <time>2017-06-25T07:21:53Z</time>
      </trkpt>
      <trkpt lat="49.43494" lon="5.7409">
        <ele>316.89172363281</ele>
        <time>2017-06-25T07:21:55Z</time>
      </trkpt>
      <trkpt lat="49.43485" lon="5.7409">
        <ele>315.44982910156</ele>
        <time>2017-06-25T07:21:59Z</time>
      </trkpt>
      <trkpt lat="49.43454" lon="5.74129">
        <ele>311.12377929688</ele>
        <time>2017-06-25T07:22:12Z</time>
      </trkpt>
      <trkpt lat="49.43427" lon="5.74158">
        <ele>310.16247558594</ele>
        <time>2017-06-25T07:22:23Z</time>
      </trkpt>
      <trkpt lat="49.43401" lon="5.74188">
        <ele>311.12377929688</ele>
        <time>2017-06-25T07:22:32Z</time>
      </trkpt>
      <trkpt lat="49.43364" lon="5.74233">
        <ele>311.12377929688</ele>
        <time>2017-06-25T07:22:43Z</time>
      </trkpt>
      <trkpt lat="49.43332" lon="5.74273">
        <ele>311.12377929688</ele>
        <time>2017-06-25T07:22:53Z</time>
      </trkpt>
      <trkpt lat="49.43337" lon="5.74275">
        <ele>316.8</ele>
        <time>2017-06-27T16:02:30Z</time>
      </trkpt>
      <trkpt lat="49.43329" lon="5.74282">
        <ele>316.2</ele>
      </trkpt>
      <trkpt lat="49.4332" lon="5.74292">
        <ele>314.1</ele>
      </trkpt>
      <trkpt lat="49.43311" lon="5.74301">
        <ele>312.7</ele>
      </trkpt>
      <trkpt lat="49.43304" lon="5.74311">
        <ele>311.4</ele>
      </trkpt>
      <trkpt lat="49.43295" lon="5.74317">
        <ele>310.9</ele>
      </trkpt>
      <trkpt lat="49.43286" lon="5.74327">
        <ele>309.8</ele>
      </trkpt>
      <trkpt lat="49.43277" lon="5.74338">
        <ele>308.4</ele>
      </trkpt>
      <trkpt lat="49.43267" lon="5.74349">
        <ele>307.4</ele>
      </trkpt>
      <trkpt lat="49.43259" lon="5.7436">
        <ele>306.5</ele>
      </trkpt>
      <trkpt lat="49.4325" lon="5.74371">
        <ele>305.6</ele>
      </trkpt>
      <trkpt lat="49.4324" lon="5.74379">
        <ele>305.1</ele>
      </trkpt>
      <trkpt lat="49.4323" lon="5.74385">
        <ele>305</ele>
      </trkpt>
      <trkpt lat="49.43221" lon="5.74393">
        <ele>304.7</ele>
      </trkpt>
      <trkpt lat="49.43214" lon="5.74402">
        <ele>304.2</ele>
      </trkpt>
      <trkpt lat="49.43206" lon="5.74409">
        <ele>303.8</ele>
      </trkpt>
      <trkpt lat="49.43199" lon="5.74417">
        <ele>302.8</ele>
      </trkpt>
      <trkpt lat="49.4319" lon="5.74428">
        <ele>302.4</ele>
      </trkpt>
      <trkpt lat="49.43181" lon="5.74435">
        <ele>302.9</ele>
      </trkpt>
      <trkpt lat="49.43176" lon="5.74444">
        <ele>302.8</ele>
      </trkpt>
      <trkpt lat="49.43177" lon="5.7444">
        <ele>289.01354980469</ele>
        <time>2017-06-25T07:23:30Z</time>
      </trkpt>
      <trkpt lat="49.43175" lon="5.74447">
        <ele>302.47192382812</ele>
        <time>2017-06-25T07:23:38Z</time>
      </trkpt>
      <trkpt lat="49.43159" lon="5.74454">
        <ele>306.7978515625</ele>
        <time>2017-06-25T07:23:48Z</time>
      </trkpt>
      <trkpt lat="49.43143" lon="5.74425">
        <ele>314.0078125</ele>
        <time>2017-06-25T07:24:00Z</time>
      </trkpt>
      <trkpt lat="49.43142" lon="5.74423">
        <ele>314.96911621094</ele>
        <time>2017-06-25T07:24:01Z</time>
      </trkpt>
      <trkpt lat="49.43126" lon="5.74398">
        <ele>323.14038085938</ele>
        <time>2017-06-25T07:24:13Z</time>
      </trkpt>
      <trkpt lat="49.43118" lon="5.74387">
        <ele>323.62097167969</ele>
        <time>2017-06-25T07:24:26Z</time>
      </trkpt>
      <trkpt lat="49.43119" lon="5.74388">
        <ele>322.65966796875</ele>
        <time>2017-06-25T07:25:01Z</time>
      </trkpt>
      <trkpt lat="49.4312" lon="5.74385">
        <ele>322.65966796875</ele>
        <time>2017-06-25T07:25:43Z</time>
      </trkpt>
      <trkpt lat="49.43118" lon="5.74377">
        <ele>322.17895507812</ele>
        <time>2017-06-25T07:25:49Z</time>
      </trkpt>
      <trkpt lat="49.43115" lon="5.7437">
        <ele>321.69836425781</ele>
        <time>2017-06-25T07:25:52Z</time>
      </trkpt>
      <trkpt lat="49.43105" lon="5.74344">
        <ele>322.65966796875</ele>
        <time>2017-06-25T07:26:03Z</time>
      </trkpt>
      <trkpt lat="49.43095" lon="5.74336">
        <ele>324.58227539062</ele>
        <time>2017-06-25T07:26:13Z</time>
      </trkpt>
      <trkpt lat="49.43092" lon="5.74334">
        <ele>326.5048828125</ele>
        <time>2017-06-25T07:26:21Z</time>
      </trkpt>
      <trkpt lat="49.43089" lon="5.74323">
        <ele>327.46618652344</ele>
        <time>2017-06-25T07:26:27Z</time>
      </trkpt>
      <trkpt lat="49.43078" lon="5.74293">
        <ele>328.42761230469</ele>
        <time>2017-06-25T07:26:38Z</time>
      </trkpt>
      <trkpt lat="49.43068" lon="5.74266">
        <ele>329.38891601562</ele>
        <time>2017-06-25T07:26:47Z</time>
      </trkpt>
      <trkpt lat="49.43066" lon="5.74254">
        <ele>328.90832519531</ele>
        <time>2017-06-25T07:26:50Z</time>
      </trkpt>
      <trkpt lat="49.43045" lon="5.7422">
        <ele>330.83093261719</ele>
        <time>2017-06-25T07:27:02Z</time>
      </trkpt>
      <trkpt lat="49.43028" lon="5.74191">
        <ele>329.86950683594</ele>
        <time>2017-06-25T07:27:11Z</time>
      </trkpt>
      <trkpt lat="49.43026" lon="5.74181">
        <ele>331.3115234375</ele>
        <time>2017-06-25T07:27:14Z</time>
      </trkpt>
      <trkpt lat="49.43022" lon="5.74176">
        <ele>331.79211425781</ele>
        <time>2017-06-25T07:27:16Z</time>
      </trkpt>
      <trkpt lat="49.43011" lon="5.74162">
        <ele>327.94677734375</ele>
        <time>2017-06-25T07:27:21Z</time>
      </trkpt>
      <trkpt lat="49.43005" lon="5.74147">
        <ele>327.46618652344</ele>
        <time>2017-06-25T07:27:26Z</time>
      </trkpt>
      <trkpt lat="49.42985" lon="5.74091">
        <ele>327.94677734375</ele>
        <time>2017-06-25T07:27:38Z</time>
      </trkpt>
      <trkpt lat="49.42961" lon="5.74042">
        <ele>332.75354003906</ele>
        <time>2017-06-25T07:27:50Z</time>
      </trkpt>
      <trkpt lat="49.42935" lon="5.73986">
        <ele>337.56005859375</ele>
        <time>2017-06-25T07:28:04Z</time>
      </trkpt>
      <trkpt lat="49.42912" lon="5.73939">
        <ele>340.44409179688</ele>
        <time>2017-06-25T07:28:17Z</time>
      </trkpt>
      <trkpt lat="49.4289" lon="5.73897">
        <ele>342.36669921875</ele>
        <time>2017-06-25T07:28:26Z</time>
      </trkpt>
      <trkpt lat="49.42866" lon="5.73857">
        <ele>344.28942871094</ele>
        <time>2017-06-25T07:28:35Z</time>
      </trkpt>
      <trkpt lat="49.42845" lon="5.73811">
        <ele>343.32788085938</ele>
        <time>2017-06-25T07:28:45Z</time>
      </trkpt>
      <trkpt lat="49.42832" lon="5.73784">
        <ele>343.80859375</ele>
        <time>2017-06-25T07:28:53Z</time>
      </trkpt>
      <trkpt lat="49.42801" lon="5.73719">
        <ele>343.80859375</ele>
        <time>2017-06-25T07:29:05Z</time>
      </trkpt>
      <trkpt lat="49.42786" lon="5.73687">
        <ele>341.4052734375</ele>
        <time>2017-06-25T07:29:14Z</time>
      </trkpt>
      <trkpt lat="49.42778" lon="5.73682">
        <ele>340.44409179688</ele>
        <time>2017-06-25T07:29:15Z</time>
      </trkpt>
      <trkpt lat="49.42761" lon="5.73661">
        <ele>336.59887695312</ele>
        <time>2017-06-25T07:29:20Z</time>
      </trkpt>
      <trkpt lat="49.42738" lon="5.73618">
        <ele>334.67614746094</ele>
        <time>2017-06-25T07:29:31Z</time>
      </trkpt>
      <trkpt lat="49.42722" lon="5.73578">
        <ele>330.35021972656</ele>
        <time>2017-06-25T07:29:40Z</time>
      </trkpt>
      <trkpt lat="49.42691" lon="5.73522">
        <ele>325.06298828125</ele>
        <time>2017-06-25T07:29:54Z</time>
      </trkpt>
      <trkpt lat="49.42681" lon="5.73501">
        <ele>321.2177734375</ele>
        <time>2017-06-25T07:29:59Z</time>
      </trkpt>
      <trkpt lat="49.42663" lon="5.73474">
        <ele>316.89172363281</ele>
        <time>2017-06-25T07:30:05Z</time>
      </trkpt>
      <trkpt lat="49.42631" lon="5.7341">
        <ele>315.93041992188</ele>
        <time>2017-06-25T07:30:19Z</time>
      </trkpt>
      <trkpt lat="49.42598" lon="5.7336">
        <ele>314.96911621094</ele>
        <time>2017-06-25T07:30:27Z</time>
      </trkpt>
      <trkpt lat="49.42593" lon="5.73352">
        <ele>314.48840332031</ele>
        <time>2017-06-25T07:30:28Z</time>
      </trkpt>
      <trkpt lat="49.42564" lon="5.73303">
        <ele>313.52722167969</ele>
        <time>2017-06-25T07:30:36Z</time>
      </trkpt>
      <trkpt lat="49.42561" lon="5.73299">
        <ele>313.52722167969</ele>
        <time>2017-06-25T07:30:37Z</time>
      </trkpt>
      <trkpt lat="49.42539" lon="5.73277">
        <ele>314.48840332031</ele>
        <time>2017-06-25T07:30:47Z</time>
      </trkpt>
      <trkpt lat="49.42497" lon="5.73275">
        <ele>312.56579589844</ele>
        <time>2017-06-25T07:31:01Z</time>
      </trkpt>
      <trkpt lat="49.42457" lon="5.73287">
        <ele>310.64306640625</ele>
        <time>2017-06-25T07:31:11Z</time>
      </trkpt>
      <trkpt lat="49.42446" lon="5.73295">
        <ele>309.201171875</ele>
        <time>2017-06-25T07:31:13Z</time>
      </trkpt>
      <trkpt lat="49.42422" lon="5.7331">
        <ele>306.7978515625</ele>
        <time>2017-06-25T07:31:17Z</time>
      </trkpt>
      <trkpt lat="49.42411" lon="5.7332">
        <ele>305.83666992188</ele>
        <time>2017-06-25T07:31:20Z</time>
      </trkpt>
      <trkpt lat="49.42389" lon="5.73361">
        <ele>303.43322753906</ele>
        <time>2017-06-25T07:31:27Z</time>
      </trkpt>
      <trkpt lat="49.42352" lon="5.73419">
        <ele>299.10729980469</ele>
        <time>2017-06-25T07:31:37Z</time>
      </trkpt>
      <trkpt lat="49.42334" lon="5.73451">
        <ele>296.7041015625</ele>
        <time>2017-06-25T07:31:42Z</time>
      </trkpt>
      <trkpt lat="49.42308" lon="5.73491">
        <ele>293.82006835938</ele>
        <time>2017-06-25T07:31:48Z</time>
      </trkpt>
      <trkpt lat="49.42271" lon="5.73542">
        <ele>287.57141113281</ele>
        <time>2017-06-25T07:31:58Z</time>
      </trkpt>
      <trkpt lat="49.42272" lon="5.73544">
        <ele>289.01354980469</ele>
        <time>2017-06-25T07:32:37Z</time>
      </trkpt>
      <trkpt lat="49.42271" lon="5.73548">
        <ele>288.53295898438</ele>
        <time>2017-06-25T07:32:44Z</time>
      </trkpt>
      <trkpt lat="49.42268" lon="5.73557">
        <ele>288.53295898438</ele>
        <time>2017-06-25T07:32:48Z</time>
      </trkpt>
      <trkpt lat="49.42265" lon="5.73563">
        <ele>289.01354980469</ele>
        <time>2017-06-25T07:32:51Z</time>
      </trkpt>
      <trkpt lat="49.42267" lon="5.73605">
        <ele>288.05224609375</ele>
        <time>2017-06-25T07:33:03Z</time>
      </trkpt>
      <trkpt lat="49.42286" lon="5.73651">
        <ele>282.28430175781</ele>
        <time>2017-06-25T07:33:15Z</time>
      </trkpt>
      <trkpt lat="49.42307" lon="5.73695">
        <ele>276.9970703125</ele>
        <time>2017-06-25T07:33:26Z</time>
      </trkpt>
      <trkpt lat="49.4231" lon="5.73696">
        <ele>276.51635742188</ele>
        <time>2017-06-25T07:33:31Z</time>
      </trkpt>
      <trkpt lat="49.42287" lon="5.73645">
        <ele>271.70971679688</ele>
        <time>2017-06-25T07:33:45Z</time>
      </trkpt>
      <trkpt lat="49.42247" lon="5.73593">
        <ele>267.38391113281</ele>
        <time>2017-06-25T07:33:57Z</time>
      </trkpt>
      <trkpt lat="49.42207" lon="5.73554">
        <ele>266.90319824219</ele>
        <time>2017-06-25T07:34:09Z</time>
      </trkpt>
      <trkpt lat="49.42167" lon="5.73494">
        <ele>267.86450195312</ele>
        <time>2017-06-25T07:34:20Z</time>
      </trkpt>
      <trkpt lat="49.42129" lon="5.73409">
        <ele>265.94189453125</ele>
        <time>2017-06-25T07:34:31Z</time>
      </trkpt>
      <trkpt lat="49.42072" lon="5.73329">
        <ele>263.05786132812</ele>
        <time>2017-06-25T07:34:44Z</time>
      </trkpt>
      <trkpt lat="49.42041" lon="5.73292">
        <ele>263.53857421875</ele>
        <time>2017-06-25T07:34:51Z</time>
      </trkpt>
      <trkpt lat="49.42015" lon="5.73278">
        <ele>264.01928710938</ele>
        <time>2017-06-25T07:34:56Z</time>
      </trkpt>
      <trkpt lat="49.41991" lon="5.7326">
        <ele>265.46130371094</ele>
        <time>2017-06-25T07:35:00Z</time>
      </trkpt>
      <trkpt lat="49.41945" lon="5.7325">
        <ele>267.38391113281</ele>
        <time>2017-06-25T07:35:07Z</time>
      </trkpt>
      <trkpt lat="49.41928" lon="5.73246">
        <ele>268.34509277344</ele>
        <time>2017-06-25T07:35:10Z</time>
      </trkpt>
      <trkpt lat="49.419" lon="5.73228">
        <ele>268.82580566406</ele>
        <time>2017-06-25T07:35:15Z</time>
      </trkpt>
      <trkpt lat="49.41878" lon="5.73224">
        <ele>270.74841308594</ele>
        <time>2017-06-25T07:35:19Z</time>
      </trkpt>
      <trkpt lat="49.41837" lon="5.73207">
        <ele>274.59375</ele>
        <time>2017-06-25T07:35:27Z</time>
      </trkpt>
      <trkpt lat="49.41817" lon="5.73193">
        <ele>276.51635742188</ele>
        <time>2017-06-25T07:35:32Z</time>
      </trkpt>
      <trkpt lat="49.41795" lon="5.73169">
        <ele>279.40026855469</ele>
        <time>2017-06-25T07:35:38Z</time>
      </trkpt>
      <trkpt lat="49.41733" lon="5.73105">
        <ele>279.880859375</ele>
        <time>2017-06-25T07:35:48Z</time>
      </trkpt>
      <trkpt lat="49.41718" lon="5.73063">
        <ele>280.84240722656</ele>
        <time>2017-06-25T07:35:52Z</time>
      </trkpt>
      <trkpt lat="49.41692" lon="5.72987">
        <ele>275.07446289062</ele>
        <time>2017-06-25T07:35:59Z</time>
      </trkpt>
      <trkpt lat="49.41636" lon="5.7287">
        <ele>269.30651855469</ele>
        <time>2017-06-25T07:36:13Z</time>
      </trkpt>
      <trkpt lat="49.41614" lon="5.72805">
        <ele>272.67114257812</ele>
        <time>2017-06-25T07:36:21Z</time>
      </trkpt>
      <trkpt lat="49.41603" lon="5.72784">
        <ele>276.03564453125</ele>
        <time>2017-06-25T07:36:24Z</time>
      </trkpt>
      <trkpt lat="49.41586" lon="5.7274">
        <ele>281.32299804688</ele>
        <time>2017-06-25T07:36:30Z</time>
      </trkpt>
      <trkpt lat="49.41567" lon="5.72712">
        <ele>286.12951660156</ele>
        <time>2017-06-25T07:36:35Z</time>
      </trkpt>
      <trkpt lat="49.41539" lon="5.72649">
        <ele>296.22351074219</ele>
        <time>2017-06-25T07:36:44Z</time>
      </trkpt>
      <trkpt lat="49.41514" lon="5.7259">
        <ele>296.7041015625</ele>
        <time>2017-06-25T07:36:51Z</time>
      </trkpt>
      <trkpt lat="49.41502" lon="5.72543">
        <ele>298.14611816406</ele>
        <time>2017-06-25T07:36:55Z</time>
      </trkpt>
      <trkpt lat="49.41495" lon="5.72515">
        <ele>298.14611816406</ele>
        <time>2017-06-25T07:36:58Z</time>
      </trkpt>
      <trkpt lat="49.41471" lon="5.72427">
        <ele>280.36169433594</ele>
        <time>2017-06-25T07:37:08Z</time>
      </trkpt>
      <trkpt lat="49.41468" lon="5.72344">
        <ele>270.26770019531</ele>
        <time>2017-06-25T07:37:19Z</time>
      </trkpt>
      <trkpt lat="49.41465" lon="5.72331">
        <ele>270.26770019531</ele>
        <time>2017-06-25T07:37:21Z</time>
      </trkpt>
      <trkpt lat="49.41454" lon="5.72309">
        <ele>269.787109375</ele>
        <time>2017-06-25T07:37:25Z</time>
      </trkpt>
      <trkpt lat="49.41444" lon="5.72289">
        <ele>270.74841308594</ele>
        <time>2017-06-25T07:37:28Z</time>
      </trkpt>
      <trkpt lat="49.41396" lon="5.7224">
        <ele>270.74841308594</ele>
        <time>2017-06-25T07:37:38Z</time>
      </trkpt>
      <trkpt lat="49.41352" lon="5.72222">
        <ele>268.34509277344</ele>
        <time>2017-06-25T07:37:44Z</time>
      </trkpt>
      <trkpt lat="49.4131" lon="5.72224">
        <ele>264.98059082031</ele>
        <time>2017-06-25T07:37:51Z</time>
      </trkpt>
      <trkpt lat="49.41295" lon="5.72227">
        <ele>263.05786132812</ele>
        <time>2017-06-25T07:37:54Z</time>
      </trkpt>
      <trkpt lat="49.41286" lon="5.72226">
        <ele>263.05786132812</ele>
        <time>2017-06-25T07:37:56Z</time>
      </trkpt>
      <trkpt lat="49.41274" lon="5.7218">
        <ele>257.77075195312</ele>
        <time>2017-06-25T07:38:02Z</time>
      </trkpt>
      <trkpt lat="49.41274" lon="5.72163">
        <ele>254.88659667969</ele>
        <time>2017-06-25T07:38:04Z</time>
      </trkpt>
      <trkpt lat="49.41281" lon="5.72117">
        <ele>248.15759277344</ele>
        <time>2017-06-25T07:38:10Z</time>
      </trkpt>
      <trkpt lat="49.4128" lon="5.72083">
        <ele>245.2734375</ele>
        <time>2017-06-25T07:38:14Z</time>
      </trkpt>
      <trkpt lat="49.41265" lon="5.71966">
        <ele>246.71545410156</ele>
        <time>2017-06-25T07:38:27Z</time>
      </trkpt>
      <trkpt lat="49.41233" lon="5.71887">
        <ele>247.6767578125</ele>
        <time>2017-06-25T07:38:39Z</time>
      </trkpt>
      <trkpt lat="49.41174" lon="5.71825">
        <ele>249.59948730469</ele>
        <time>2017-06-25T07:38:49Z</time>
      </trkpt>
      <trkpt lat="49.4114" lon="5.718">
        <ele>251.04138183594</ele>
        <time>2017-06-25T07:38:55Z</time>
      </trkpt>
      <trkpt lat="49.41101" lon="5.71748">
        <ele>245.2734375</ele>
        <time>2017-06-25T07:39:04Z</time>
      </trkpt>
      <trkpt lat="49.41065" lon="5.71774">
        <ele>238.54431152344</ele>
        <time>2017-06-25T07:39:14Z</time>
      </trkpt>
      <trkpt lat="49.40971" lon="5.71839">
        <ele>238.54431152344</ele>
        <time>2017-06-25T07:39:37Z</time>
      </trkpt>
      <trkpt lat="49.40941" lon="5.71864">
        <ele>236.62170410156</ele>
        <time>2017-06-25T07:39:45Z</time>
      </trkpt>
      <trkpt lat="49.40937" lon="5.71914">
        <ele>236.14099121094</ele>
        <time>2017-06-25T07:39:55Z</time>
      </trkpt>
      <trkpt lat="49.40936" lon="5.71975">
        <ele>234.69909667969</ele>
        <time>2017-06-25T07:40:09Z</time>
      </trkpt>
      <trkpt lat="49.40937" lon="5.7203">
        <ele>239.50549316406</ele>
        <time>2017-06-25T07:40:23Z</time>
      </trkpt>
      <trkpt lat="49.40933" lon="5.72081">
        <ele>240.46704101562</ele>
        <time>2017-06-25T07:40:37Z</time>
      </trkpt>
      <trkpt lat="49.40928" lon="5.72112">
        <ele>246.23486328125</ele>
        <time>2017-06-25T07:40:51Z</time>
      </trkpt>
      <trkpt lat="49.40914" lon="5.72145">
        <ele>247.6767578125</ele>
        <time>2017-06-25T07:41:08Z</time>
      </trkpt>
      <trkpt lat="49.40907" lon="5.72156">
        <ele>248.15759277344</ele>
        <time>2017-06-25T07:41:16Z</time>
      </trkpt>
      <trkpt lat="49.40875" lon="5.72156">
        <ele>247.19604492188</ele>
        <time>2017-06-25T07:41:34Z</time>
      </trkpt>
      <trkpt lat="49.40872" lon="5.72156">
        <ele>246.71545410156</ele>
        <time>2017-06-25T07:41:35Z</time>
      </trkpt>
      <trkpt lat="49.40822" lon="5.72125">
        <ele>243.35083007812</ele>
        <time>2017-06-25T07:41:47Z</time>
      </trkpt>
      <trkpt lat="49.4081" lon="5.72136">
        <ele>243.35083007812</ele>
        <time>2017-06-25T07:41:52Z</time>
      </trkpt>
      <trkpt lat="49.40807" lon="5.72159">
        <ele>243.35083007812</ele>
        <time>2017-06-25T07:42:01Z</time>
      </trkpt>
      <trkpt lat="49.40808" lon="5.72163">
        <ele>243.83154296875</ele>
        <time>2017-06-25T07:42:03Z</time>
      </trkpt>
      <trkpt lat="49.40808" lon="5.72171">
        <ele>244.31225585938</ele>
        <time>2017-06-25T07:42:06Z</time>
      </trkpt>
      <trkpt lat="49.40807" lon="5.72188">
        <ele>245.75415039062</ele>
        <time>2017-06-25T07:42:12Z</time>
      </trkpt>
      <trkpt lat="49.40807" lon="5.72202">
        <ele>246.71545410156</ele>
        <time>2017-06-25T07:42:17Z</time>
      </trkpt>
      <trkpt lat="49.40806" lon="5.72219">
        <ele>250.08020019531</ele>
        <time>2017-06-25T07:42:23Z</time>
      </trkpt>
      <trkpt lat="49.40806" lon="5.72225">
        <ele>250.08020019531</ele>
        <time>2017-06-25T07:42:26Z</time>
      </trkpt>
      <trkpt lat="49.40793" lon="5.72259">
        <ele>252.4833984375</ele>
        <time>2017-06-25T07:42:39Z</time>
      </trkpt>
      <trkpt lat="49.40777" lon="5.72275">
        <ele>252.96398925781</ele>
        <time>2017-06-25T07:42:49Z</time>
      </trkpt>
      <trkpt lat="49.40745" lon="5.72298">
        <ele>251.04138183594</ele>
        <time>2017-06-25T07:43:09Z</time>
      </trkpt>
      <trkpt lat="49.40715" lon="5.72318">
        <ele>251.52209472656</ele>
        <time>2017-06-25T07:43:26Z</time>
      </trkpt>
      <trkpt lat="49.40687" lon="5.72333">
        <ele>258.25134277344</ele>
        <time>2017-06-25T07:43:44Z</time>
      </trkpt>
      <trkpt lat="49.40682" lon="5.72366">
        <ele>262.09655761719</ele>
        <time>2017-06-25T07:43:58Z</time>
      </trkpt>
      <trkpt lat="49.40676" lon="5.72406">
        <ele>268.34509277344</ele>
        <time>2017-06-25T07:44:13Z</time>
      </trkpt>
      <trkpt lat="49.40672" lon="5.72445">
        <ele>276.51635742188</ele>
        <time>2017-06-25T07:44:27Z</time>
      </trkpt>
      <trkpt lat="49.40667" lon="5.72475">
        <ele>281.80358886719</ele>
        <time>2017-06-25T07:44:45Z</time>
      </trkpt>
      <trkpt lat="49.40662" lon="5.72504">
        <ele>283.24560546875</ele>
        <time>2017-06-25T07:45:03Z</time>
      </trkpt>
      <trkpt lat="49.40663" lon="5.72508">
        <ele>284.20690917969</ele>
        <time>2017-06-25T07:45:24Z</time>
      </trkpt>
      <trkpt lat="49.40664" lon="5.72509">
        <ele>284.68762207031</ele>
        <time>2017-06-25T07:45:54Z</time>
      </trkpt>
      <trkpt lat="49.40665" lon="5.72508">
        <ele>284.20690917969</ele>
        <time>2017-06-25T07:46:34Z</time>
      </trkpt>
      <trkpt lat="49.40663" lon="5.72507">
        <ele>283.72619628906</ele>
        <time>2017-06-25T07:48:53Z</time>
      </trkpt>
      <trkpt lat="49.40664" lon="5.72507">
        <ele>282.76501464844</ele>
        <time>2017-06-25T07:49:13Z</time>
      </trkpt>
      <trkpt lat="49.40665" lon="5.72509">
        <ele>281.80358886719</ele>
        <time>2017-06-25T07:49:50Z</time>
      </trkpt>
      <trkpt lat="49.40664" lon="5.7251">
        <ele>281.32299804688</ele>
        <time>2017-06-25T07:50:56Z</time>
      </trkpt>
      <trkpt lat="49.40664" lon="5.7251">
        <ele>280.84240722656</ele>
        <time>2017-06-25T07:51:08Z</time>
      </trkpt>
      <trkpt lat="49.40663" lon="5.72507">
        <ele>280.84240722656</ele>
        <time>2017-06-25T07:51:29Z</time>
      </trkpt>
      <trkpt lat="49.40664" lon="5.72508">
        <ele>280.84240722656</ele>
        <time>2017-06-25T07:51:55Z</time>
      </trkpt>
      <trkpt lat="49.4066" lon="5.72508">
        <ele>280.84240722656</ele>
        <time>2017-06-25T07:52:14Z</time>
      </trkpt>
      <trkpt lat="49.40661" lon="5.72508">
        <ele>283.24560546875</ele>
        <time>2017-06-25T07:52:41Z</time>
      </trkpt>
      <trkpt lat="49.40662" lon="5.72507">
        <ele>282.76501464844</ele>
        <time>2017-06-25T07:53:12Z</time>
      </trkpt>
      <trkpt lat="49.40661" lon="5.72506">
        <ele>282.28430175781</ele>
        <time>2017-06-25T07:53:37Z</time>
      </trkpt>
      <trkpt lat="49.40662" lon="5.72506">
        <ele>278.91967773438</ele>
        <time>2017-06-25T07:54:09Z</time>
      </trkpt>
      <trkpt lat="49.40661" lon="5.72507">
        <ele>277.95825195312</ele>
        <time>2017-06-25T07:54:39Z</time>
      </trkpt>
      <trkpt lat="49.40661" lon="5.72506">
        <ele>278.43896484375</ele>
        <time>2017-06-25T07:55:07Z</time>
      </trkpt>
      <trkpt lat="49.40661" lon="5.72507">
        <ele>278.43896484375</ele>
        <time>2017-06-25T07:55:36Z</time>
      </trkpt>
      <trkpt lat="49.40661" lon="5.72508">
        <ele>278.43896484375</ele>
        <time>2017-06-25T07:56:05Z</time>
      </trkpt>
      <trkpt lat="49.40662" lon="5.72505">
        <ele>279.880859375</ele>
        <time>2017-06-25T07:56:53Z</time>
      </trkpt>
      <trkpt lat="49.40662" lon="5.72506">
        <ele>281.80358886719</ele>
        <time>2017-06-25T07:57:48Z</time>
      </trkpt>
      <trkpt lat="49.40662" lon="5.72505">
        <ele>280.84240722656</ele>
        <time>2017-06-25T07:58:05Z</time>
      </trkpt>
      <trkpt lat="49.40662" lon="5.72505">
        <ele>281.80358886719</ele>
        <time>2017-06-25T07:58:22Z</time>
      </trkpt>
      <trkpt lat="49.40663" lon="5.72506">
        <ele>284.20690917969</ele>
        <time>2017-06-25T07:58:43Z</time>
      </trkpt>
      <trkpt lat="49.40663" lon="5.72506">
        <ele>284.68762207031</ele>
        <time>2017-06-25T07:58:59Z</time>
      </trkpt>
      <trkpt lat="49.40664" lon="5.72504">
        <ele>286.61022949219</ele>
        <time>2017-06-25T07:59:33Z</time>
      </trkpt>
      <trkpt lat="49.40664" lon="5.72504">
        <ele>284.20690917969</ele>
        <time>2017-06-25T08:00:16Z</time>
      </trkpt>
      <trkpt lat="49.40663" lon="5.72505">
        <ele>285.16821289062</ele>
        <time>2017-06-25T08:01:29Z</time>
      </trkpt>
      <trkpt lat="49.40664" lon="5.72506">
        <ele>285.16821289062</ele>
        <time>2017-06-25T08:01:46Z</time>
      </trkpt>
      <trkpt lat="49.40664" lon="5.72506">
        <ele>285.64880371094</ele>
        <time>2017-06-25T08:02:28Z</time>
      </trkpt>
      <trkpt lat="49.40663" lon="5.72516">
        <ele>285.16821289062</ele>
        <time>2017-06-25T08:02:32Z</time>
      </trkpt>
      <trkpt lat="49.40654" lon="5.7256">
        <ele>284.68762207031</ele>
        <time>2017-06-25T08:02:44Z</time>
      </trkpt>
      <trkpt lat="49.40644" lon="5.72609">
        <ele>283.72619628906</ele>
        <time>2017-06-25T08:02:58Z</time>
      </trkpt>
      <trkpt lat="49.40646" lon="5.72676">
        <ele>283.72619628906</ele>
        <time>2017-06-25T08:03:14Z</time>
      </trkpt>
      <trkpt lat="49.40643" lon="5.72747">
        <ele>283.24560546875</ele>
        <time>2017-06-25T08:03:29Z</time>
      </trkpt>
      <trkpt lat="49.40641" lon="5.72822">
        <ele>286.12951660156</ele>
        <time>2017-06-25T08:03:43Z</time>
      </trkpt>
      <trkpt lat="49.40636" lon="5.72869">
        <ele>290.45556640625</ele>
        <time>2017-06-25T08:03:51Z</time>
      </trkpt>
      <trkpt lat="49.40637" lon="5.72943">
        <ele>294.30078125</ele>
        <time>2017-06-25T08:04:04Z</time>
      </trkpt>
      <trkpt lat="49.40641" lon="5.73015">
        <ele>292.37817382812</ele>
        <time>2017-06-25T08:04:19Z</time>
      </trkpt>
      <trkpt lat="49.40629" lon="5.73085">
        <ele>293.33935546875</ele>
        <time>2017-06-25T08:04:33Z</time>
      </trkpt>
      <trkpt lat="49.40623" lon="5.73092">
        <ele>292.85876464844</ele>
        <time>2017-06-25T08:04:36Z</time>
      </trkpt>
      <trkpt lat="49.40617" lon="5.73149">
        <ele>299.10729980469</ele>
        <time>2017-06-25T08:04:49Z</time>
      </trkpt>
      <trkpt lat="49.40611" lon="5.73209">
        <ele>301.99133300781</ele>
        <time>2017-06-25T08:05:03Z</time>
      </trkpt>
      <trkpt lat="49.40598" lon="5.73271">
        <ele>308.23986816406</ele>
        <time>2017-06-25T08:05:19Z</time>
      </trkpt>
      <trkpt lat="49.4057" lon="5.7333">
        <ele>309.68188476562</ele>
        <time>2017-06-25T08:05:35Z</time>
      </trkpt>
      <trkpt lat="49.40545" lon="5.73363">
        <ele>308.23986816406</ele>
        <time>2017-06-25T08:05:45Z</time>
      </trkpt>
      <trkpt lat="49.40548" lon="5.73379">
        <ele>307.27856445312</ele>
        <time>2017-06-25T08:05:49Z</time>
      </trkpt>
      <trkpt lat="49.40573" lon="5.73461">
        <ele>307.75927734375</ele>
        <time>2017-06-25T08:06:07Z</time>
      </trkpt>
      <trkpt lat="49.40581" lon="5.73511">
        <ele>306.31726074219</ele>
        <time>2017-06-25T08:06:18Z</time>
      </trkpt>
      <trkpt lat="49.40585" lon="5.73581">
        <ele>302.47192382812</ele>
        <time>2017-06-25T08:06:30Z</time>
      </trkpt>
      <trkpt lat="49.40587" lon="5.73605">
        <ele>301.51062011719</ele>
        <time>2017-06-25T08:06:34Z</time>
      </trkpt>
      <trkpt lat="49.40579" lon="5.73616">
        <ele>298.14611816406</ele>
        <time>2017-06-25T08:06:40Z</time>
      </trkpt>
      <trkpt lat="49.40558" lon="5.73621">
        <ele>293.82006835938</ele>
        <time>2017-06-25T08:06:49Z</time>
      </trkpt>
      <trkpt lat="49.40551" lon="5.73636">
        <ele>291.8974609375</ele>
        <time>2017-06-25T08:06:53Z</time>
      </trkpt>
      <trkpt lat="49.40524" lon="5.73652">
        <ele>288.05224609375</ele>
        <time>2017-06-25T08:07:01Z</time>
      </trkpt>
      <trkpt lat="49.40514" lon="5.73663">
        <ele>286.61022949219</ele>
        <time>2017-06-25T08:07:03Z</time>
      </trkpt>
      <trkpt lat="49.4051" lon="5.73689">
        <ele>285.16821289062</ele>
        <time>2017-06-25T08:07:08Z</time>
      </trkpt>
      <trkpt lat="49.40515" lon="5.7372">
        <ele>283.72619628906</ele>
        <time>2017-06-25T08:07:12Z</time>
      </trkpt>
      <trkpt lat="49.40531" lon="5.73799">
        <ele>284.20690917969</ele>
        <time>2017-06-25T08:07:24Z</time>
      </trkpt>
      <trkpt lat="49.40533" lon="5.7382">
        <ele>284.68762207031</ele>
        <time>2017-06-25T08:07:28Z</time>
      </trkpt>
      <trkpt lat="49.40553" lon="5.7388">
        <ele>287.0908203125</ele>
        <time>2017-06-25T08:07:42Z</time>
      </trkpt>
      <trkpt lat="49.40566" lon="5.73943">
        <ele>292.85876464844</ele>
        <time>2017-06-25T08:07:58Z</time>
      </trkpt>
      <trkpt lat="49.4057" lon="5.74009">
        <ele>298.62670898438</ele>
        <time>2017-06-25T08:08:13Z</time>
      </trkpt>
      <trkpt lat="49.40561" lon="5.74031">
        <ele>300.54931640625</ele>
        <time>2017-06-25T08:08:23Z</time>
      </trkpt>
      <trkpt lat="49.40551" lon="5.74043">
        <ele>299.10729980469</ele>
        <time>2017-06-25T08:08:26Z</time>
      </trkpt>
      <trkpt lat="49.40538" lon="5.7405">
        <ele>297.66540527344</ele>
        <time>2017-06-25T08:08:29Z</time>
      </trkpt>
      <trkpt lat="49.40483" lon="5.74118">
        <ele>289.97485351562</ele>
        <time>2017-06-25T08:08:41Z</time>
      </trkpt>
      <trkpt lat="49.40432" lon="5.74177">
        <ele>287.0908203125</ele>
        <time>2017-06-25T08:08:53Z</time>
      </trkpt>
      <trkpt lat="49.40371" lon="5.74228">
        <ele>286.61022949219</ele>
        <time>2017-06-25T08:09:10Z</time>
      </trkpt>
      <trkpt lat="49.4031" lon="5.74286">
        <ele>285.16821289062</ele>
        <time>2017-06-25T08:09:28Z</time>
      </trkpt>
      <trkpt lat="49.40307" lon="5.74289">
        <ele>285.16821289062</ele>
        <time>2017-06-25T08:09:29Z</time>
      </trkpt>
      <trkpt lat="49.40248" lon="5.74341">
        <ele>282.76501464844</ele>
        <time>2017-06-25T08:09:46Z</time>
      </trkpt>
      <trkpt lat="49.40227" lon="5.74359">
        <ele>281.80358886719</ele>
        <time>2017-06-25T08:09:53Z</time>
      </trkpt>
      <trkpt lat="49.40216" lon="5.74419">
        <ele>286.61022949219</ele>
        <time>2017-06-25T08:10:04Z</time>
      </trkpt>
      <trkpt lat="49.40211" lon="5.74444">
        <ele>289.494140625</ele>
        <time>2017-06-25T08:10:15Z</time>
      </trkpt>
      <trkpt lat="49.40203" lon="5.74467">
        <ele>288.05224609375</ele>
        <time>2017-06-25T08:12:13Z</time>
      </trkpt>
      <trkpt lat="49.40185" lon="5.74535">
        <ele>288.05224609375</ele>
        <time>2017-06-25T08:12:30Z</time>
      </trkpt>
      <trkpt lat="49.40178" lon="5.74561">
        <ele>287.57141113281</ele>
        <time>2017-06-25T08:12:35Z</time>
      </trkpt>
      <trkpt lat="49.40153" lon="5.74673">
        <ele>283.72619628906</ele>
        <time>2017-06-25T08:12:53Z</time>
      </trkpt>
      <trkpt lat="49.40155" lon="5.74746">
        <ele>287.0908203125</ele>
        <time>2017-06-25T08:13:05Z</time>
      </trkpt>
      <trkpt lat="49.40162" lon="5.74804">
        <ele>285.64880371094</ele>
        <time>2017-06-25T08:13:16Z</time>
      </trkpt>
      <trkpt lat="49.40164" lon="5.74814">
        <ele>285.64880371094</ele>
        <time>2017-06-25T08:13:19Z</time>
      </trkpt>
      <trkpt lat="49.40185" lon="5.74857">
        <ele>286.12951660156</ele>
        <time>2017-06-25T08:13:33Z</time>
      </trkpt>
      <trkpt lat="49.40204" lon="5.74897">
        <ele>289.494140625</ele>
        <time>2017-06-25T08:13:45Z</time>
      </trkpt>
      <trkpt lat="49.40212" lon="5.74917">
        <ele>289.494140625</ele>
        <time>2017-06-25T08:13:50Z</time>
      </trkpt>
      <trkpt lat="49.40221" lon="5.7494">
        <ele>294.30078125</ele>
        <time>2017-06-25T08:13:57Z</time>
      </trkpt>
      <trkpt lat="49.40233" lon="5.74993">
        <ele>299.10729980469</ele>
        <time>2017-06-25T08:14:11Z</time>
      </trkpt>
      <trkpt lat="49.40241" lon="5.75041">
        <ele>304.87524414062</ele>
        <time>2017-06-25T08:14:25Z</time>
      </trkpt>
      <trkpt lat="49.40262" lon="5.75103">
        <ele>308.72045898438</ele>
        <time>2017-06-25T08:14:41Z</time>
      </trkpt>
      <trkpt lat="49.4027" lon="5.75122">
        <ele>310.16247558594</ele>
        <time>2017-06-25T08:14:46Z</time>
      </trkpt>
      <trkpt lat="49.40268" lon="5.75138">
        <ele>311.6044921875</ele>
        <time>2017-06-25T08:14:51Z</time>
      </trkpt>
      <trkpt lat="49.4023" lon="5.75144">
        <ele>306.31726074219</ele>
        <time>2017-06-25T08:15:05Z</time>
      </trkpt>
      <trkpt lat="49.40202" lon="5.75154">
        <ele>306.31726074219</ele>
        <time>2017-06-25T08:15:17Z</time>
      </trkpt>
      <trkpt lat="49.40197" lon="5.75154">
        <ele>304.87524414062</ele>
        <time>2017-06-25T08:15:21Z</time>
      </trkpt>
      <trkpt lat="49.40163" lon="5.75164">
        <ele>301.02990722656</ele>
        <time>2017-06-25T08:15:36Z</time>
      </trkpt>
      <trkpt lat="49.4014" lon="5.75164">
        <ele>297.66540527344</ele>
        <time>2017-06-25T08:15:44Z</time>
      </trkpt>
      <trkpt lat="49.40132" lon="5.752">
        <ele>295.26196289062</ele>
        <time>2017-06-25T08:15:54Z</time>
      </trkpt>
      <trkpt lat="49.40124" lon="5.75253">
        <ele>298.62670898438</ele>
        <time>2017-06-25T08:16:07Z</time>
      </trkpt>
      <trkpt lat="49.40117" lon="5.75302">
        <ele>301.99133300781</ele>
        <time>2017-06-25T08:16:18Z</time>
      </trkpt>
      <trkpt lat="49.40112" lon="5.75335">
        <ele>302.95251464844</ele>
        <time>2017-06-25T08:16:28Z</time>
      </trkpt>
      <trkpt lat="49.40108" lon="5.75365">
        <ele>301.51062011719</ele>
        <time>2017-06-25T08:16:38Z</time>
      </trkpt>
      <trkpt lat="49.40107" lon="5.75385">
        <ele>303.43322753906</ele>
        <time>2017-06-25T08:16:44Z</time>
      </trkpt>
      <trkpt lat="49.40108" lon="5.75398">
        <ele>303.91394042969</ele>
        <time>2017-06-25T08:16:47Z</time>
      </trkpt>
      <trkpt lat="49.40109" lon="5.75428">
        <ele>304.87524414062</ele>
        <time>2017-06-25T08:17:00Z</time>
      </trkpt>
      <trkpt lat="49.4011" lon="5.75441">
        <ele>304.87524414062</ele>
        <time>2017-06-25T08:17:04Z</time>
      </trkpt>
      <trkpt lat="49.40118" lon="5.75491">
        <ele>304.87524414062</ele>
        <time>2017-06-25T08:17:21Z</time>
      </trkpt>
      <trkpt lat="49.40129" lon="5.75538">
        <ele>306.31726074219</ele>
        <time>2017-06-25T08:17:38Z</time>
      </trkpt>
      <trkpt lat="49.40151" lon="5.75584">
        <ele>305.83666992188</ele>
        <time>2017-06-25T08:17:54Z</time>
      </trkpt>
      <trkpt lat="49.40176" lon="5.75637">
        <ele>305.35595703125</ele>
        <time>2017-06-25T08:18:11Z</time>
      </trkpt>
      <trkpt lat="49.40205" lon="5.757">
        <ele>307.27856445312</ele>
        <time>2017-06-25T08:18:30Z</time>
      </trkpt>
      <trkpt lat="49.40238" lon="5.75752">
        <ele>308.23986816406</ele>
        <time>2017-06-25T08:18:47Z</time>
      </trkpt>
      <trkpt lat="49.40259" lon="5.75779">
        <ele>309.201171875</ele>
        <time>2017-06-25T08:18:58Z</time>
      </trkpt>
      <trkpt lat="49.4031" lon="5.75825">
        <ele>313.04650878906</ele>
        <time>2017-06-25T08:19:18Z</time>
      </trkpt>
      <trkpt lat="49.40374" lon="5.75879">
        <ele>315.93041992188</ele>
        <time>2017-06-25T08:19:41Z</time>
      </trkpt>
      <trkpt lat="49.40442" lon="5.75927">
        <ele>316.89172363281</ele>
        <time>2017-06-25T08:20:04Z</time>
      </trkpt>
      <trkpt lat="49.40507" lon="5.75982">
        <ele>318.81433105469</ele>
        <time>2017-06-25T08:20:27Z</time>
      </trkpt>
      <trkpt lat="49.40566" lon="5.76055">
        <ele>320.25634765625</ele>
        <time>2017-06-25T08:20:49Z</time>
      </trkpt>
      <trkpt lat="49.40612" lon="5.76117">
        <ele>320.73706054688</ele>
        <time>2017-06-25T08:21:07Z</time>
      </trkpt>
      <trkpt lat="49.40642" lon="5.76162">
        <ele>322.17895507812</ele>
        <time>2017-06-25T08:21:21Z</time>
      </trkpt>
      <trkpt lat="49.40687" lon="5.76257">
        <ele>323.14038085938</ele>
        <time>2017-06-25T08:21:42Z</time>
      </trkpt>
      <trkpt lat="49.40721" lon="5.76324">
        <ele>322.17895507812</ele>
        <time>2017-06-25T08:21:58Z</time>
      </trkpt>
      <trkpt lat="49.40723" lon="5.76329">
        <ele>321.69836425781</ele>
        <time>2017-06-25T08:21:59Z</time>
      </trkpt>
      <trkpt lat="49.40742" lon="5.76342">
        <ele>322.65966796875</ele>
        <time>2017-06-25T08:22:09Z</time>
      </trkpt>
      <trkpt lat="49.40744" lon="5.76344">
        <ele>322.65966796875</ele>
        <time>2017-06-25T08:23:04Z</time>
      </trkpt>
      <trkpt lat="49.40743" lon="5.7635">
        <ele>322.65966796875</ele>
        <time>2017-06-25T08:23:46Z</time>
      </trkpt>
      <trkpt lat="49.40742" lon="5.76348">
        <ele>323.14038085938</ele>
        <time>2017-06-25T08:23:53Z</time>
      </trkpt>
      <trkpt lat="49.40743" lon="5.76348">
        <ele>323.14038085938</ele>
        <time>2017-06-25T08:24:04Z</time>
      </trkpt>
      <trkpt lat="49.40743" lon="5.76351">
        <ele>325.06298828125</ele>
        <time>2017-06-25T08:25:23Z</time>
      </trkpt>
      <trkpt lat="49.40748" lon="5.76364">
        <ele>325.54357910156</ele>
        <time>2017-06-25T08:25:30Z</time>
      </trkpt>
      <trkpt lat="49.40763" lon="5.76395">
        <ele>325.06298828125</ele>
        <time>2017-06-25T08:25:40Z</time>
      </trkpt>
      <trkpt lat="49.40786" lon="5.76387">
        <ele>324.58227539062</ele>
        <time>2017-06-25T08:25:49Z</time>
      </trkpt>
      <trkpt lat="49.40824" lon="5.76362">
        <ele>323.62097167969</ele>
        <time>2017-06-25T08:26:03Z</time>
      </trkpt>
      <trkpt lat="49.40877" lon="5.76323">
        <ele>321.2177734375</ele>
        <time>2017-06-25T08:26:21Z</time>
      </trkpt>
      <trkpt lat="49.40916" lon="5.76295">
        <ele>321.2177734375</ele>
        <time>2017-06-25T08:26:34Z</time>
      </trkpt>
      <trkpt lat="49.40945" lon="5.76253">
        <ele>321.2177734375</ele>
        <time>2017-06-25T08:26:49Z</time>
      </trkpt>
      <trkpt lat="49.40981" lon="5.76205">
        <ele>325.06298828125</ele>
        <time>2017-06-25T08:27:04Z</time>
      </trkpt>
      <trkpt lat="49.41018" lon="5.76159">
        <ele>327.46618652344</ele>
        <time>2017-06-25T08:27:19Z</time>
      </trkpt>
      <trkpt lat="49.41022" lon="5.76152">
        <ele>326.98559570312</ele>
        <time>2017-06-25T08:27:28Z</time>
      </trkpt>
      <trkpt lat="49.41052" lon="5.76115">
        <ele>326.98559570312</ele>
        <time>2017-06-25T08:27:44Z</time>
      </trkpt>
      <trkpt lat="49.41099" lon="5.76052">
        <ele>327.94677734375</ele>
        <time>2017-06-25T08:28:02Z</time>
      </trkpt>
      <trkpt lat="49.41125" lon="5.75983">
        <ele>326.02416992188</ele>
        <time>2017-06-25T08:28:17Z</time>
      </trkpt>
      <trkpt lat="49.41144" lon="5.75864">
        <ele>327.46618652344</ele>
        <time>2017-06-25T08:28:38Z</time>
      </trkpt>
      <trkpt lat="49.41164" lon="5.75835">
        <ele>326.02416992188</ele>
        <time>2017-06-25T08:28:45Z</time>
      </trkpt>
      <trkpt lat="49.41257" lon="5.75777">
        <ele>329.38891601562</ele>
        <time>2017-06-25T08:29:07Z</time>
      </trkpt>
      <trkpt lat="49.41289" lon="5.75755">
        <ele>328.90832519531</ele>
        <time>2017-06-25T08:29:16Z</time>
      </trkpt>
      <trkpt lat="49.41299" lon="5.75766">
        <ele>328.42761230469</ele>
        <time>2017-06-25T08:29:22Z</time>
      </trkpt>
      <trkpt lat="49.41314" lon="5.75832">
        <ele>326.02416992188</ele>
        <time>2017-06-25T08:29:37Z</time>
      </trkpt>
      <trkpt lat="49.41326" lon="5.75875">
        <ele>326.98559570312</ele>
        <time>2017-06-25T08:29:48Z</time>
      </trkpt>
      <trkpt lat="49.41326" lon="5.75883">
        <ele>327.46618652344</ele>
        <time>2017-06-25T08:29:51Z</time>
      </trkpt>
      <trkpt lat="49.41332" lon="5.75893">
        <ele>327.94677734375</ele>
        <time>2017-06-25T08:29:58Z</time>
      </trkpt>
      <trkpt lat="49.41348" lon="5.75893">
        <ele>327.94677734375</ele>
        <time>2017-06-25T08:30:05Z</time>
      </trkpt>
      <trkpt lat="49.41361" lon="5.75897">
        <ele>327.94677734375</ele>
        <time>2017-06-25T08:30:10Z</time>
      </trkpt>
      <trkpt lat="49.41392" lon="5.75896">
        <ele>326.5048828125</ele>
        <time>2017-06-25T08:30:18Z</time>
      </trkpt>
      <trkpt lat="49.41426" lon="5.75906">
        <ele>320.25634765625</ele>
        <time>2017-06-25T08:30:32Z</time>
      </trkpt>
      <trkpt lat="49.41477" lon="5.7588">
        <ele>304.39465332031</ele>
        <time>2017-06-25T08:30:51Z</time>
      </trkpt>
      <trkpt lat="49.41511" lon="5.7586">
        <ele>302.95251464844</ele>
        <time>2017-06-25T08:31:05Z</time>
      </trkpt>
      <trkpt lat="49.41547" lon="5.7584">
        <ele>307.75927734375</ele>
        <time>2017-06-25T08:31:16Z</time>
      </trkpt>
      <trkpt lat="49.41584" lon="5.75811">
        <ele>311.6044921875</ele>
        <time>2017-06-25T08:31:29Z</time>
      </trkpt>
      <trkpt lat="49.41606" lon="5.7579">
        <ele>311.12377929688</ele>
        <time>2017-06-25T08:31:42Z</time>
      </trkpt>
      <trkpt lat="49.41621" lon="5.75772">
        <ele>314.0078125</ele>
        <time>2017-06-25T08:31:48Z</time>
      </trkpt>
      <trkpt lat="49.41648" lon="5.7574">
        <ele>307.27856445312</ele>
        <time>2017-06-25T08:32:05Z</time>
      </trkpt>
      <trkpt lat="49.41669" lon="5.75698">
        <ele>298.14611816406</ele>
        <time>2017-06-25T08:32:18Z</time>
      </trkpt>
      <trkpt lat="49.41696" lon="5.75658">
        <ele>290.93615722656</ele>
        <time>2017-06-25T08:32:34Z</time>
      </trkpt>
      <trkpt lat="49.41733" lon="5.75629">
        <ele>288.53295898438</ele>
        <time>2017-06-25T08:32:45Z</time>
      </trkpt>
      <trkpt lat="49.41756" lon="5.75605">
        <ele>285.64880371094</ele>
        <time>2017-06-25T08:32:54Z</time>
      </trkpt>
      <trkpt lat="49.41766" lon="5.75606">
        <ele>286.12951660156</ele>
        <time>2017-06-25T08:32:56Z</time>
      </trkpt>
      <trkpt lat="49.41781" lon="5.75605">
        <ele>289.494140625</ele>
        <time>2017-06-25T08:32:59Z</time>
      </trkpt>
      <trkpt lat="49.418" lon="5.75596">
        <ele>294.30078125</ele>
        <time>2017-06-25T08:33:03Z</time>
      </trkpt>
      <trkpt lat="49.41821" lon="5.75571">
        <ele>298.62670898438</ele>
        <time>2017-06-25T08:33:15Z</time>
      </trkpt>
      <trkpt lat="49.41826" lon="5.75562">
        <ele>323.62097167969</ele>
        <time>2017-06-25T08:34:02Z</time>
      </trkpt>
      <trkpt lat="49.41829" lon="5.75542">
        <ele>325.06298828125</ele>
        <time>2017-06-25T08:35:12Z</time>
      </trkpt>
      <trkpt lat="49.41826" lon="5.7552">
        <ele>325.54357910156</ele>
        <time>2017-06-25T08:35:21Z</time>
      </trkpt>
      <trkpt lat="49.41829" lon="5.75452">
        <ele>326.02416992188</ele>
        <time>2017-06-25T08:35:34Z</time>
      </trkpt>
      <trkpt lat="49.4182" lon="5.75393">
        <ele>326.98559570312</ele>
        <time>2017-06-25T08:35:48Z</time>
      </trkpt>
      <trkpt lat="49.41804" lon="5.7535">
        <ele>328.90832519531</ele>
        <time>2017-06-25T08:35:59Z</time>
      </trkpt>
      <trkpt lat="49.418" lon="5.75337">
        <ele>329.86950683594</ele>
        <time>2017-06-25T08:36:02Z</time>
      </trkpt>
      <trkpt lat="49.41779" lon="5.75274">
        <ele>330.35021972656</ele>
        <time>2017-06-25T08:36:16Z</time>
      </trkpt>
      <trkpt lat="49.41775" lon="5.75265">
        <ele>329.38891601562</ele>
        <time>2017-06-25T08:36:52Z</time>
      </trkpt>
      <trkpt lat="49.41771" lon="5.75248">
        <ele>328.42761230469</ele>
        <time>2017-06-25T08:37:48Z</time>
      </trkpt>
      <trkpt lat="49.41788" lon="5.75207">
        <ele>328.42761230469</ele>
        <time>2017-06-25T08:37:58Z</time>
      </trkpt>
      <trkpt lat="49.4182" lon="5.75159">
        <ele>321.69836425781</ele>
        <time>2017-06-25T08:38:08Z</time>
      </trkpt>
      <trkpt lat="49.41862" lon="5.75102">
        <ele>309.201171875</ele>
        <time>2017-06-25T08:38:20Z</time>
      </trkpt>
      <trkpt lat="49.41905" lon="5.75048">
        <ele>299.10729980469</ele>
        <time>2017-06-25T08:38:28Z</time>
      </trkpt>
      <trkpt lat="49.41947" lon="5.74987">
        <ele>286.12951660156</ele>
        <time>2017-06-25T08:38:37Z</time>
      </trkpt>
      <trkpt lat="49.41981" lon="5.74955">
        <ele>282.76501464844</ele>
        <time>2017-06-25T08:38:48Z</time>
      </trkpt>
      <trkpt lat="49.42019" lon="5.74919">
        <ele>286.12951660156</ele>
        <time>2017-06-25T08:39:05Z</time>
      </trkpt>
      <trkpt lat="49.42046" lon="5.74899">
        <ele>289.01354980469</ele>
        <time>2017-06-25T08:39:15Z</time>
      </trkpt>
      <trkpt lat="49.42071" lon="5.74861">
        <ele>273.15185546875</ele>
        <time>2017-06-25T08:39:27Z</time>
      </trkpt>
      <trkpt lat="49.42092" lon="5.74845">
        <ele>273.15185546875</ele>
        <time>2017-06-25T08:39:40Z</time>
      </trkpt>
      <trkpt lat="49.42097" lon="5.74854">
        <ele>270.74841308594</ele>
        <time>2017-06-25T08:39:43Z</time>
      </trkpt>
      <trkpt lat="49.42106" lon="5.74894">
        <ele>267.38391113281</ele>
        <time>2017-06-25T08:39:53Z</time>
      </trkpt>
      <trkpt lat="49.42132" lon="5.74929">
        <ele>270.74841308594</ele>
        <time>2017-06-25T08:40:04Z</time>
      </trkpt>
      <trkpt lat="49.42156" lon="5.74962">
        <ele>272.1904296875</ele>
        <time>2017-06-25T08:40:15Z</time>
      </trkpt>
      <trkpt lat="49.42208" lon="5.75004">
        <ele>285.16821289062</ele>
        <time>2017-06-25T08:40:30Z</time>
      </trkpt>
      <trkpt lat="49.42222" lon="5.75018">
        <ele>289.01354980469</ele>
        <time>2017-06-25T08:40:34Z</time>
      </trkpt>
      <trkpt lat="49.42246" lon="5.75071">
        <ele>295.26196289062</ele>
        <time>2017-06-25T08:40:47Z</time>
      </trkpt>
      <trkpt lat="49.42266" lon="5.75116">
        <ele>299.10729980469</ele>
        <time>2017-06-25T08:40:59Z</time>
      </trkpt>
      <trkpt lat="49.42287" lon="5.75148">
        <ele>301.51062011719</ele>
        <time>2017-06-25T08:41:08Z</time>
      </trkpt>
      <trkpt lat="49.42297" lon="5.75169">
        <ele>304.87524414062</ele>
        <time>2017-06-25T08:41:15Z</time>
      </trkpt>
      <trkpt lat="49.42279" lon="5.75179">
        <ele>308.23986816406</ele>
        <time>2017-06-25T08:41:26Z</time>
      </trkpt>
      <trkpt lat="49.42271" lon="5.75185">
        <ele>309.201171875</ele>
        <time>2017-06-25T08:41:31Z</time>
      </trkpt>
      <trkpt lat="49.42265" lon="5.75192">
        <ele>309.68188476562</ele>
        <time>2017-06-25T08:41:36Z</time>
      </trkpt>
      <trkpt lat="49.42252" lon="5.75207">
        <ele>307.75927734375</ele>
        <time>2017-06-25T08:41:45Z</time>
      </trkpt>
      <trkpt lat="49.42233" lon="5.75238">
        <ele>296.22351074219</ele>
        <time>2017-06-25T08:42:01Z</time>
      </trkpt>
      <trkpt lat="49.4223" lon="5.75242">
        <ele>294.78137207031</ele>
        <time>2017-06-25T08:42:03Z</time>
      </trkpt>
      <trkpt lat="49.42217" lon="5.75266">
        <ele>288.05224609375</ele>
        <time>2017-06-25T08:42:15Z</time>
      </trkpt>
      <trkpt lat="49.42204" lon="5.75282">
        <ele>285.16821289062</ele>
        <time>2017-06-25T08:42:20Z</time>
      </trkpt>
      <trkpt lat="49.42165" lon="5.75329">
        <ele>281.80358886719</ele>
        <time>2017-06-25T08:42:34Z</time>
      </trkpt>
      <trkpt lat="49.42131" lon="5.75383">
        <ele>276.51635742188</ele>
        <time>2017-06-25T08:42:47Z</time>
      </trkpt>
      <trkpt lat="49.42118" lon="5.7539">
        <ele>274.59375</ele>
        <time>2017-06-25T08:42:53Z</time>
      </trkpt>
      <trkpt lat="49.42109" lon="5.75414">
        <ele>270.74841308594</ele>
        <time>2017-06-25T08:43:00Z</time>
      </trkpt>
      <trkpt lat="49.42091" lon="5.75438">
        <ele>270.26770019531</ele>
        <time>2017-06-25T08:43:13Z</time>
      </trkpt>
      <trkpt lat="49.42055" lon="5.75452">
        <ele>273.15185546875</ele>
        <time>2017-06-25T08:43:33Z</time>
      </trkpt>
      <trkpt lat="49.42047" lon="5.75457">
        <ele>270.26770019531</ele>
        <time>2017-06-25T08:43:59Z</time>
      </trkpt>
      <trkpt lat="49.42034" lon="5.75523">
        <ele>272.67114257812</ele>
        <time>2017-06-25T08:44:30Z</time>
      </trkpt>
      <trkpt lat="49.42052" lon="5.7556">
        <ele>274.11303710938</ele>
        <time>2017-06-25T08:44:43Z</time>
      </trkpt>
      <trkpt lat="49.42071" lon="5.75595">
        <ele>276.03564453125</ele>
        <time>2017-06-25T08:44:53Z</time>
      </trkpt>
      <trkpt lat="49.42077" lon="5.75664">
        <ele>277.47766113281</ele>
        <time>2017-06-25T08:45:06Z</time>
      </trkpt>
      <trkpt lat="49.42095" lon="5.75746">
        <ele>279.40026855469</ele>
        <time>2017-06-25T08:45:21Z</time>
      </trkpt>
      <trkpt lat="49.42109" lon="5.75825">
        <ele>279.40026855469</ele>
        <time>2017-06-25T08:45:34Z</time>
      </trkpt>
      <trkpt lat="49.42124" lon="5.75903">
        <ele>279.880859375</ele>
        <time>2017-06-25T08:45:47Z</time>
      </trkpt>
      <trkpt lat="49.42139" lon="5.75978">
        <ele>285.16821289062</ele>
        <time>2017-06-25T08:46:00Z</time>
      </trkpt>
      <trkpt lat="49.42163" lon="5.76049">
        <ele>286.61022949219</ele>
        <time>2017-06-25T08:46:11Z</time>
      </trkpt>
      <trkpt lat="49.42189" lon="5.76123">
        <ele>285.64880371094</ele>
        <time>2017-06-25T08:46:26Z</time>
      </trkpt>
      <trkpt lat="49.42206" lon="5.76159">
        <ele>285.64880371094</ele>
        <time>2017-06-25T08:46:36Z</time>
      </trkpt>
      <trkpt lat="49.4222" lon="5.76172">
        <ele>280.84240722656</ele>
        <time>2017-06-25T08:46:51Z</time>
      </trkpt>
      <trkpt lat="49.42224" lon="5.76186">
        <ele>289.494140625</ele>
        <time>2017-06-25T08:47:10Z</time>
      </trkpt>
      <trkpt lat="49.42234" lon="5.76184">
        <ele>291.8974609375</ele>
        <time>2017-06-25T08:47:16Z</time>
      </trkpt>
      <trkpt lat="49.42242" lon="5.76165">
        <ele>291.41674804688</ele>
        <time>2017-06-25T08:47:28Z</time>
      </trkpt>
      <trkpt lat="49.42246" lon="5.76157">
        <ele>290.45556640625</ele>
        <time>2017-06-25T08:47:32Z</time>
      </trkpt>
      <trkpt lat="49.42251" lon="5.76148">
        <ele>289.01354980469</ele>
        <time>2017-06-25T08:47:37Z</time>
      </trkpt>
      <trkpt lat="49.42265" lon="5.76133">
        <ele>285.64880371094</ele>
        <time>2017-06-25T08:47:47Z</time>
      </trkpt>
      <trkpt lat="49.42296" lon="5.76002">
        <ele>286.61022949219</ele>
        <time>2017-06-25T08:47:59Z</time>
      </trkpt>
      <trkpt lat="49.42337" lon="5.75938">
        <ele>289.494140625</ele>
        <time>2017-06-25T08:48:08Z</time>
      </trkpt>
      <trkpt lat="49.42352" lon="5.75903">
        <ele>289.01354980469</ele>
        <time>2017-06-25T08:48:12Z</time>
      </trkpt>
      <trkpt lat="49.42373" lon="5.75867">
        <ele>286.61022949219</ele>
        <time>2017-06-25T08:48:16Z</time>
      </trkpt>
      <trkpt lat="49.42389" lon="5.75798">
        <ele>283.24560546875</ele>
        <time>2017-06-25T08:48:21Z</time>
      </trkpt>
      <trkpt lat="49.42404" lon="5.75747">
        <ele>281.32299804688</ele>
        <time>2017-06-25T08:48:25Z</time>
      </trkpt>
      <trkpt lat="49.42427" lon="5.75709">
        <ele>276.03564453125</ele>
        <time>2017-06-25T08:48:29Z</time>
      </trkpt>
      <trkpt lat="49.42479" lon="5.75652">
        <ele>273.15185546875</ele>
        <time>2017-06-25T08:48:41Z</time>
      </trkpt>
      <trkpt lat="49.42493" lon="5.75647">
        <ele>275.07446289062</ele>
        <time>2017-06-25T08:48:44Z</time>
      </trkpt>
      <trkpt lat="49.42516" lon="5.7565">
        <ele>270.26770019531</ele>
        <time>2017-06-25T08:48:49Z</time>
      </trkpt>
      <trkpt lat="49.42562" lon="5.75636">
        <ele>264.49987792969</ele>
        <time>2017-06-25T08:48:54Z</time>
      </trkpt>
      <trkpt lat="49.42597" lon="5.75621">
        <ele>261.61596679688</ele>
        <time>2017-06-25T08:48:58Z</time>
      </trkpt>
      <trkpt lat="49.4268" lon="5.75603">
        <ele>252.96398925781</ele>
        <time>2017-06-25T08:49:06Z</time>
      </trkpt>
      <trkpt lat="49.42718" lon="5.75578">
        <ele>249.11877441406</ele>
        <time>2017-06-25T08:49:10Z</time>
      </trkpt>
      <trkpt lat="49.42739" lon="5.75544">
        <ele>244.79284667969</ele>
        <time>2017-06-25T08:49:14Z</time>
      </trkpt>
      <trkpt lat="49.42758" lon="5.7548">
        <ele>231.33435058594</ele>
        <time>2017-06-25T08:49:26Z</time>
      </trkpt>
      <trkpt lat="49.42755" lon="5.75468">
        <ele>228.45043945312</ele>
        <time>2017-06-25T08:49:28Z</time>
      </trkpt>
      <trkpt lat="49.42756" lon="5.75458">
        <ele>225.56652832031</ele>
        <time>2017-06-25T08:49:44Z</time>
      </trkpt>
      <trkpt lat="49.42757" lon="5.75453">
        <ele>225.56652832031</ele>
        <time>2017-06-25T08:49:46Z</time>
      </trkpt>
      <trkpt lat="49.42782" lon="5.75381">
        <ele>226.04711914062</ele>
        <time>2017-06-25T08:49:58Z</time>
      </trkpt>
      <trkpt lat="49.42812" lon="5.75324">
        <ele>227.9697265625</ele>
        <time>2017-06-25T08:50:09Z</time>
      </trkpt>
      <trkpt lat="49.42818" lon="5.75325">
        <ele>232.29577636719</ele>
        <time>2017-06-25T08:50:32Z</time>
      </trkpt>
      <trkpt lat="49.42818" lon="5.75322">
        <ele>232.29577636719</ele>
        <time>2017-06-25T08:50:49Z</time>
      </trkpt>
      <trkpt lat="49.42821" lon="5.75309">
        <ele>233.73767089844</ele>
        <time>2017-06-25T08:50:55Z</time>
      </trkpt>
      <trkpt lat="49.42819" lon="5.75297">
        <ele>234.21838378906</ele>
        <time>2017-06-25T08:51:01Z</time>
      </trkpt>
      <trkpt lat="49.42809" lon="5.75238">
        <ele>234.21838378906</ele>
        <time>2017-06-25T08:51:12Z</time>
      </trkpt>
      <trkpt lat="49.42815" lon="5.75215">
        <ele>233.25708007812</ele>
        <time>2017-06-25T08:51:18Z</time>
      </trkpt>
      <trkpt lat="49.42833" lon="5.75183">
        <ele>235.1796875</ele>
        <time>2017-06-25T08:51:28Z</time>
      </trkpt>
      <trkpt lat="49.42833" lon="5.75132">
        <ele>239.02490234375</ele>
        <time>2017-06-25T08:51:42Z</time>
      </trkpt>
      <trkpt lat="49.42839" lon="5.75069">
        <ele>241.90893554688</ele>
        <time>2017-06-25T08:51:54Z</time>
      </trkpt>
      <trkpt lat="49.42857" lon="5.74959">
        <ele>239.02490234375</ele>
        <time>2017-06-25T08:52:06Z</time>
      </trkpt>
      <trkpt lat="49.4286" lon="5.74939">
        <ele>238.54431152344</ele>
        <time>2017-06-25T08:52:08Z</time>
      </trkpt>
      <trkpt lat="49.42864" lon="5.74886">
        <ele>239.50549316406</ele>
        <time>2017-06-25T08:52:13Z</time>
      </trkpt>
      <trkpt lat="49.4288" lon="5.74844">
        <ele>239.02490234375</ele>
        <time>2017-06-25T08:52:19Z</time>
      </trkpt>
      <trkpt lat="49.42898" lon="5.74821">
        <ele>240.46704101562</ele>
        <time>2017-06-25T08:52:28Z</time>
      </trkpt>
      <trkpt lat="49.42936" lon="5.74805">
        <ele>238.54431152344</ele>
        <time>2017-06-25T08:52:41Z</time>
      </trkpt>
      <trkpt lat="49.42952" lon="5.74802">
        <ele>237.58288574219</ele>
        <time>2017-06-25T08:52:46Z</time>
      </trkpt>
      <trkpt lat="49.42992" lon="5.74806">
        <ele>236.62170410156</ele>
        <time>2017-06-25T08:52:58Z</time>
      </trkpt>
      <trkpt lat="49.42996" lon="5.74802">
        <ele>236.14099121094</ele>
        <time>2017-06-25T08:53:00Z</time>
      </trkpt>
      <trkpt lat="49.43013" lon="5.74761">
        <ele>236.62170410156</ele>
        <time>2017-06-25T08:53:11Z</time>
      </trkpt>
      <trkpt lat="49.43037" lon="5.74734">
        <ele>240.94763183594</ele>
        <time>2017-06-25T08:53:21Z</time>
      </trkpt>
      <trkpt lat="49.43043" lon="5.74721">
        <ele>245.2734375</ele>
        <time>2017-06-25T08:53:29Z</time>
      </trkpt>
      <trkpt lat="49.43071" lon="5.74688">
        <ele>246.23486328125</ele>
        <time>2017-06-25T08:53:45Z</time>
      </trkpt>
      <trkpt lat="49.43096" lon="5.74657">
        <ele>243.83154296875</ele>
        <time>2017-06-25T08:53:59Z</time>
      </trkpt>
      <trkpt lat="49.43124" lon="5.74619">
        <ele>242.3896484375</ele>
        <time>2017-06-25T08:54:12Z</time>
      </trkpt>
      <trkpt lat="49.43151" lon="5.74587">
        <ele>239.98620605469</ele>
        <time>2017-06-25T08:54:27Z</time>
      </trkpt>
      <trkpt lat="49.43184" lon="5.74562">
        <ele>241.90893554688</ele>
        <time>2017-06-25T08:54:41Z</time>
      </trkpt>
      <trkpt lat="49.43208" lon="5.74542">
        <ele>241.42822265625</ele>
        <time>2017-06-25T08:54:51Z</time>
      </trkpt>
      <trkpt lat="49.43233" lon="5.74519">
        <ele>244.79284667969</ele>
        <time>2017-06-25T08:55:04Z</time>
      </trkpt>
      <trkpt lat="49.43236" lon="5.74513">
        <ele>244.79284667969</ele>
        <time>2017-06-25T08:55:06Z</time>
      </trkpt>
      <trkpt lat="49.43247" lon="5.74503">
        <ele>247.6767578125</ele>
        <time>2017-06-25T08:55:11Z</time>
      </trkpt>
      <trkpt lat="49.43289" lon="5.74473">
        <ele>257.77075195312</ele>
        <time>2017-06-25T08:55:26Z</time>
      </trkpt>
      <trkpt lat="49.43292" lon="5.74472">
        <ele>260.65454101562</ele>
        <time>2017-06-25T08:55:27Z</time>
      </trkpt>
      <trkpt lat="49.43328" lon="5.74452">
        <ele>260.65454101562</ele>
        <time>2017-06-25T08:55:40Z</time>
      </trkpt>
      <trkpt lat="49.43349" lon="5.74441">
        <ele>261.61596679688</ele>
        <time>2017-06-25T08:55:48Z</time>
      </trkpt>
      <trkpt lat="49.43381" lon="5.74429">
        <ele>261.13525390625</ele>
        <time>2017-06-25T08:56:03Z</time>
      </trkpt>
      <trkpt lat="49.43407" lon="5.7442">
        <ele>263.05786132812</ele>
        <time>2017-06-25T08:56:10Z</time>
      </trkpt>
      <trkpt lat="49.43415" lon="5.74414">
        <ele>262.5771484375</ele>
        <time>2017-06-25T08:56:14Z</time>
      </trkpt>
      <trkpt lat="49.43426" lon="5.7439">
        <ele>261.61596679688</ele>
        <time>2017-06-25T08:56:23Z</time>
      </trkpt>
      <trkpt lat="49.4343" lon="5.74388">
        <ele>261.13525390625</ele>
        <time>2017-06-25T08:56:25Z</time>
      </trkpt>
      <trkpt lat="49.43437" lon="5.74381">
        <ele>259.693359375</ele>
        <time>2017-06-25T08:56:30Z</time>
      </trkpt>
      <trkpt lat="49.43458" lon="5.74361">
        <ele>256.80932617188</ele>
        <time>2017-06-25T08:56:38Z</time>
      </trkpt>
      <trkpt lat="49.43494" lon="5.74336">
        <ele>259.693359375</ele>
        <time>2017-06-25T08:56:50Z</time>
      </trkpt>
      <trkpt lat="49.43503" lon="5.74327">
        <ele>264.01928710938</ele>
        <time>2017-06-25T08:56:54Z</time>
      </trkpt>
      <trkpt lat="49.43545" lon="5.74306">
        <ele>265.46130371094</ele>
        <time>2017-06-25T08:57:07Z</time>
      </trkpt>
      <trkpt lat="49.43578" lon="5.74295">
        <ele>265.94189453125</ele>
        <time>2017-06-25T08:57:17Z</time>
      </trkpt>
      <trkpt lat="49.43605" lon="5.74293">
        <ele>269.787109375</ele>
        <time>2017-06-25T08:57:27Z</time>
      </trkpt>
      <trkpt lat="49.43644" lon="5.74288">
        <ele>280.84240722656</ele>
        <time>2017-06-25T08:57:39Z</time>
      </trkpt>
      <trkpt lat="49.43686" lon="5.74256">
        <ele>283.72619628906</ele>
        <time>2017-06-25T08:57:54Z</time>
      </trkpt>
      <trkpt lat="49.43731" lon="5.74212">
        <ele>288.53295898438</ele>
        <time>2017-06-25T08:58:12Z</time>
      </trkpt>
      <trkpt lat="49.43755" lon="5.74227">
        <ele>290.45556640625</ele>
        <time>2017-06-25T08:58:21Z</time>
      </trkpt>
      <trkpt lat="49.43766" lon="5.74219">
        <ele>289.01354980469</ele>
        <time>2017-06-25T08:58:26Z</time>
      </trkpt>
      <trkpt lat="49.43774" lon="5.74195">
        <ele>292.37817382812</ele>
        <time>2017-06-25T08:58:34Z</time>
      </trkpt>
      <trkpt lat="49.43777" lon="5.74182">
        <ele>295.26196289062</ele>
        <time>2017-06-25T08:58:38Z</time>
      </trkpt>
      <trkpt lat="49.4379" lon="5.74157">
        <ele>299.58801269531</ele>
        <time>2017-06-25T08:58:46Z</time>
      </trkpt>
      <trkpt lat="49.43817" lon="5.74131">
        <ele>303.43322753906</ele>
        <time>2017-06-25T08:59:00Z</time>
      </trkpt>
      <trkpt lat="49.43829" lon="5.74121">
        <ele>304.39465332031</ele>
        <time>2017-06-25T08:59:07Z</time>
      </trkpt>
      <trkpt lat="49.43847" lon="5.74076">
        <ele>306.7978515625</ele>
        <time>2017-06-25T08:59:21Z</time>
      </trkpt>
      <trkpt lat="49.43861" lon="5.74019">
        <ele>309.201171875</ele>
        <time>2017-06-25T08:59:38Z</time>
      </trkpt>
      <trkpt lat="49.43879" lon="5.73947">
        <ele>309.201171875</ele>
        <time>2017-06-25T08:59:56Z</time>
      </trkpt>
      <trkpt lat="49.43893" lon="5.73885">
        <ele>309.68188476562</ele>
        <time>2017-06-25T09:00:10Z</time>
      </trkpt>
      <trkpt lat="49.43906" lon="5.73827">
        <ele>311.6044921875</ele>
        <time>2017-06-25T09:00:24Z</time>
      </trkpt>
      <trkpt lat="49.43911" lon="5.73785">
        <ele>311.12377929688</ele>
        <time>2017-06-25T09:00:34Z</time>
      </trkpt>
      <trkpt lat="49.43923" lon="5.73722">
        <ele>314.0078125</ele>
        <time>2017-06-25T09:00:49Z</time>
      </trkpt>
      <trkpt lat="49.43934" lon="5.73667">
        <ele>317.37243652344</ele>
        <time>2017-06-25T09:01:03Z</time>
      </trkpt>
      <trkpt lat="49.43939" lon="5.73645">
        <ele>318.81433105469</ele>
        <time>2017-06-25T09:01:09Z</time>
      </trkpt>
      <trkpt lat="49.43948" lon="5.7359">
        <ele>319.77563476562</ele>
        <time>2017-06-25T09:01:24Z</time>
      </trkpt>
      <trkpt lat="49.43965" lon="5.73509">
        <ele>322.17895507812</ele>
        <time>2017-06-25T09:01:44Z</time>
      </trkpt>
      <trkpt lat="49.43985" lon="5.734">
        <ele>323.14038085938</ele>
        <time>2017-06-25T09:02:07Z</time>
      </trkpt>
      <trkpt lat="49.4401" lon="5.73288">
        <ele>323.14038085938</ele>
        <time>2017-06-25T09:02:28Z</time>
      </trkpt>
      <trkpt lat="49.44028" lon="5.732">
        <ele>324.1015625</ele>
        <time>2017-06-25T09:02:47Z</time>
      </trkpt>
      <trkpt lat="49.44043" lon="5.73119">
        <ele>330.35021972656</ele>
        <time>2017-06-25T09:03:06Z</time>
      </trkpt>
      <trkpt lat="49.44061" lon="5.73061">
        <ele>330.35021972656</ele>
        <time>2017-06-25T09:03:20Z</time>
      </trkpt>
      <trkpt lat="49.44082" lon="5.72995">
        <ele>332.27282714844</ele>
        <time>2017-06-25T09:03:38Z</time>
      </trkpt>
      <trkpt lat="49.441" lon="5.72941">
        <ele>333.71472167969</ele>
        <time>2017-06-25T09:03:54Z</time>
      </trkpt>
      <trkpt lat="49.44115" lon="5.72912">
        <ele>339.00207519531</ele>
        <time>2017-06-25T09:04:06Z</time>
      </trkpt>
      <trkpt lat="49.44116" lon="5.72927">
        <ele>341.4052734375</ele>
        <time>2017-06-25T09:04:21Z</time>
      </trkpt>
      <trkpt lat="49.44117" lon="5.72933">
        <ele>341.4052734375</ele>
        <time>2017-06-25T09:04:54Z</time>
      </trkpt>
      <trkpt lat="49.44123" lon="5.72942">
        <ele>341.88598632812</ele>
        <time>2017-06-25T09:04:58Z</time>
      </trkpt>
      <trkpt lat="49.44159" lon="5.72998">
        <ele>342.36669921875</ele>
        <time>2017-06-25T09:05:15Z</time>
      </trkpt>
      <trkpt lat="49.44197" lon="5.73053">
        <ele>340.44409179688</ele>
        <time>2017-06-25T09:05:30Z</time>
      </trkpt>
      <trkpt lat="49.4423" lon="5.73112">
        <ele>341.4052734375</ele>
        <time>2017-06-25T09:05:43Z</time>
      </trkpt>
      <trkpt lat="49.44234" lon="5.73123">
        <ele>340.92468261719</ele>
        <time>2017-06-25T09:05:45Z</time>
      </trkpt>
      <trkpt lat="49.4426" lon="5.73204">
        <ele>339.96337890625</ele>
        <time>2017-06-25T09:05:58Z</time>
      </trkpt>
      <trkpt lat="49.44264" lon="5.73214">
        <ele>339.48266601562</ele>
        <time>2017-06-25T09:06:00Z</time>
      </trkpt>
      <trkpt lat="49.44271" lon="5.73236">
        <ele>340.92468261719</ele>
        <time>2017-06-25T09:06:03Z</time>
      </trkpt>
      <trkpt lat="49.44291" lon="5.7326">
        <ele>342.36669921875</ele>
        <time>2017-06-25T09:06:09Z</time>
      </trkpt>
      <trkpt lat="49.4433" lon="5.73273">
        <ele>342.36669921875</ele>
        <time>2017-06-25T09:06:18Z</time>
      </trkpt>
      <trkpt lat="49.44355" lon="5.73277">
        <ele>340.92468261719</ele>
        <time>2017-06-25T09:06:24Z</time>
      </trkpt>
      <trkpt lat="49.44381" lon="5.73281">
        <ele>339.96337890625</ele>
        <time>2017-06-25T09:06:30Z</time>
      </trkpt>
      <trkpt lat="49.44443" lon="5.73269">
        <ele>340.92468261719</ele>
        <time>2017-06-25T09:06:46Z</time>
      </trkpt>
      <trkpt lat="49.44454" lon="5.73264">
        <ele>339.96337890625</ele>
        <time>2017-06-25T09:06:49Z</time>
      </trkpt>
      <trkpt lat="49.44494" lon="5.73238">
        <ele>338.04077148438</ele>
        <time>2017-06-25T09:06:58Z</time>
      </trkpt>
      <trkpt lat="49.44536" lon="5.73206">
        <ele>332.75354003906</ele>
        <time>2017-06-25T09:07:08Z</time>
      </trkpt>
      <trkpt lat="49.44548" lon="5.73198">
        <ele>331.79211425781</ele>
        <time>2017-06-25T09:07:10Z</time>
      </trkpt>
      <trkpt lat="49.44626" lon="5.73127">
        <ele>328.90832519531</ele>
        <time>2017-06-25T09:07:21Z</time>
      </trkpt>
      <trkpt lat="49.44697" lon="5.73106">
        <ele>324.1015625</ele>
        <time>2017-06-25T09:07:31Z</time>
      </trkpt>
      <trkpt lat="49.44744" lon="5.73093">
        <ele>315.93041992188</ele>
        <time>2017-06-25T09:07:41Z</time>
      </trkpt>
      <trkpt lat="49.4477" lon="5.73081">
        <ele>311.6044921875</ele>
        <time>2017-06-25T09:07:46Z</time>
      </trkpt>
      <trkpt lat="49.44828" lon="5.73035">
        <ele>299.58801269531</ele>
        <time>2017-06-25T09:07:59Z</time>
      </trkpt>
      <trkpt lat="49.44842" lon="5.73028">
        <ele>297.66540527344</ele>
        <time>2017-06-25T09:08:02Z</time>
      </trkpt>
      <trkpt lat="49.44872" lon="5.73016">
        <ele>297.18469238281</ele>
        <time>2017-06-25T09:08:08Z</time>
      </trkpt>
      <trkpt lat="49.44903" lon="5.73019">
        <ele>301.51062011719</ele>
        <time>2017-06-25T09:08:14Z</time>
      </trkpt>
      <trkpt lat="49.44942" lon="5.7306">
        <ele>308.72045898438</ele>
        <time>2017-06-25T09:08:22Z</time>
      </trkpt>
      <trkpt lat="49.44991" lon="5.73178">
        <ele>316.41101074219</ele>
        <time>2017-06-25T09:08:39Z</time>
      </trkpt>
      <trkpt lat="49.45014" lon="5.73324">
        <ele>318.81433105469</ele>
        <time>2017-06-25T09:08:59Z</time>
      </trkpt>
      <trkpt lat="49.45043" lon="5.73454">
        <ele>325.06298828125</ele>
        <time>2017-06-25T09:09:16Z</time>
      </trkpt>
      <trkpt lat="49.45087" lon="5.73593">
        <ele>328.90832519531</ele>
        <time>2017-06-25T09:09:37Z</time>
      </trkpt>
      <trkpt lat="49.45133" lon="5.7372">
        <ele>329.86950683594</ele>
        <time>2017-06-25T09:09:57Z</time>
      </trkpt>
      <trkpt lat="49.45175" lon="5.73807">
        <ele>329.86950683594</ele>
        <time>2017-06-25T09:10:12Z</time>
      </trkpt>
      <trkpt lat="49.45239" lon="5.73875">
        <ele>329.86950683594</ele>
        <time>2017-06-25T09:10:30Z</time>
      </trkpt>
      <trkpt lat="49.4525" lon="5.73887">
        <ele>329.86950683594</ele>
        <time>2017-06-25T09:10:33Z</time>
      </trkpt>
      <trkpt lat="49.45263" lon="5.73899">
        <ele>331.3115234375</ele>
        <time>2017-06-25T09:10:36Z</time>
      </trkpt>
      <trkpt lat="49.45308" lon="5.73952">
        <ele>333.23413085938</ele>
        <time>2017-06-25T09:10:48Z</time>
      </trkpt>
      <trkpt lat="49.45368" lon="5.74048">
        <ele>334.67614746094</ele>
        <time>2017-06-25T09:11:07Z</time>
      </trkpt>
      <trkpt lat="49.45391" lon="5.74092">
        <ele>335.63732910156</ele>
        <time>2017-06-25T09:11:15Z</time>
      </trkpt>
      <trkpt lat="49.45431" lon="5.74237">
        <ele>336.59887695312</ele>
        <time>2017-06-25T09:11:35Z</time>
      </trkpt>
      <trkpt lat="49.45436" lon="5.74272">
        <ele>336.59887695312</ele>
        <time>2017-06-25T09:11:39Z</time>
      </trkpt>
      <trkpt lat="49.45432" lon="5.74358">
        <ele>335.63732910156</ele>
        <time>2017-06-25T09:11:49Z</time>
      </trkpt>
      <trkpt lat="49.45424" lon="5.74396">
        <ele>335.15673828125</ele>
        <time>2017-06-25T09:11:54Z</time>
      </trkpt>
      <trkpt lat="49.45413" lon="5.74418">
        <ele>335.15673828125</ele>
        <time>2017-06-25T09:11:58Z</time>
      </trkpt>
      <trkpt lat="49.45406" lon="5.74427">
        <ele>334.67614746094</ele>
        <time>2017-06-25T09:12:00Z</time>
      </trkpt>
      <trkpt lat="49.45409" lon="5.74437">
        <ele>334.67614746094</ele>
        <time>2017-06-25T09:12:04Z</time>
      </trkpt>
      <trkpt lat="49.45473" lon="5.74453">
        <ele>333.71472167969</ele>
        <time>2017-06-25T09:12:21Z</time>
      </trkpt>
      <trkpt lat="49.4557" lon="5.74489">
        <ele>336.59887695312</ele>
        <time>2017-06-25T09:12:42Z</time>
      </trkpt>
      <trkpt lat="49.45673" lon="5.74501">
        <ele>338.04077148438</ele>
        <time>2017-06-25T09:13:06Z</time>
      </trkpt>
      <trkpt lat="49.45745" lon="5.74494">
        <ele>339.00207519531</ele>
        <time>2017-06-25T09:13:26Z</time>
      </trkpt>
      <trkpt lat="49.45804" lon="5.74489">
        <ele>345.73132324219</ele>
        <time>2017-06-25T09:13:47Z</time>
      </trkpt>
      <trkpt lat="49.45833" lon="5.7449">
        <ele>350.05725097656</ele>
        <time>2017-06-25T09:14:01Z</time>
      </trkpt>
      <trkpt lat="49.45866" lon="5.74487">
        <ele>352.46057128906</ele>
        <time>2017-06-25T09:14:18Z</time>
      </trkpt>
      <trkpt lat="49.45886" lon="5.74485">
        <ele>356.78637695312</ele>
        <time>2017-06-25T09:14:28Z</time>
      </trkpt>
      <trkpt lat="49.45897" lon="5.74491">
        <ele>356.30578613281</ele>
        <time>2017-06-25T09:14:40Z</time>
      </trkpt>
      <trkpt lat="49.45898" lon="5.74494">
        <ele>355.8251953125</ele>
        <time>2017-06-25T09:14:42Z</time>
      </trkpt>
      <trkpt lat="49.45908" lon="5.745">
        <ele>356.78637695312</ele>
        <time>2017-06-25T09:14:56Z</time>
      </trkpt>
      <trkpt lat="49.45937" lon="5.74552">
        <ele>353.421875</ele>
        <time>2017-06-25T09:15:09Z</time>
      </trkpt>
      <trkpt lat="49.45948" lon="5.7459">
        <ele>351.49914550781</ele>
        <time>2017-06-25T09:15:13Z</time>
      </trkpt>
      <trkpt lat="49.45962" lon="5.74749">
        <ele>348.13464355469</ele>
        <time>2017-06-25T09:15:26Z</time>
      </trkpt>
      <trkpt lat="49.45966" lon="5.748">
        <ele>349.57653808594</ele>
        <time>2017-06-25T09:15:36Z</time>
      </trkpt>
      <trkpt lat="49.45954" lon="5.74853">
        <ele>352.94116210938</ele>
        <time>2017-06-25T09:15:49Z</time>
      </trkpt>
      <trkpt lat="49.45927" lon="5.74899">
        <ele>353.421875</ele>
        <time>2017-06-25T09:16:06Z</time>
      </trkpt>
      <trkpt lat="49.45926" lon="5.74912">
        <ele>355.34448242188</ele>
        <time>2017-06-25T09:16:10Z</time>
      </trkpt>
      <trkpt lat="49.45953" lon="5.74929">
        <ele>359.67041015625</ele>
        <time>2017-06-25T09:16:27Z</time>
      </trkpt>
      <trkpt lat="49.45992" lon="5.74935">
        <ele>361.11242675781</ele>
        <time>2017-06-25T09:16:47Z</time>
      </trkpt>
      <trkpt lat="49.46028" lon="5.74927">
        <ele>368.322265625</ele>
        <time>2017-06-25T09:17:04Z</time>
      </trkpt>
      <trkpt lat="49.46061" lon="5.74908">
        <ele>369.28369140625</ele>
        <time>2017-06-25T09:17:19Z</time>
      </trkpt>
      <trkpt lat="49.46094" lon="5.74902">
        <ele>368.322265625</ele>
        <time>2017-06-25T09:17:36Z</time>
      </trkpt>
      <trkpt lat="49.46128" lon="5.74929">
        <ele>369.76428222656</ele>
        <time>2017-06-25T09:17:54Z</time>
      </trkpt>
      <trkpt lat="49.46167" lon="5.74971">
        <ele>373.12890625</ele>
        <time>2017-06-25T09:18:13Z</time>
      </trkpt>
      <trkpt lat="49.46205" lon="5.74985">
        <ele>373.60949707031</ele>
        <time>2017-06-25T09:18:30Z</time>
      </trkpt>
      <trkpt lat="49.46237" lon="5.74964">
        <ele>374.57080078125</ele>
        <time>2017-06-25T09:18:44Z</time>
      </trkpt>
      <trkpt lat="49.46282" lon="5.74928">
        <ele>372.16748046875</ele>
        <time>2017-06-25T09:19:03Z</time>
      </trkpt>
      <trkpt lat="49.46287" lon="5.74925">
        <ele>372.16748046875</ele>
        <time>2017-06-25T09:19:05Z</time>
      </trkpt>
      <trkpt lat="49.46291" lon="5.74928">
        <ele>370.7255859375</ele>
        <time>2017-06-25T09:19:09Z</time>
      </trkpt>
      <trkpt lat="49.46314" lon="5.74981">
        <ele>378.89685058594</ele>
        <time>2017-06-25T09:19:29Z</time>
      </trkpt>
      <trkpt lat="49.46315" lon="5.74986">
        <ele>376.97424316406</ele>
        <time>2017-06-25T09:19:39Z</time>
      </trkpt>
      <trkpt lat="49.46314" lon="5.74983">
        <ele>376.97424316406</ele>
        <time>2017-06-25T09:19:42Z</time>
      </trkpt>
      <trkpt lat="49.46311" lon="5.74977">
        <ele>378.41613769531</ele>
        <time>2017-06-25T09:19:49Z</time>
      </trkpt>
      <trkpt lat="49.46309" lon="5.74969">
        <ele>378.41613769531</ele>
        <time>2017-06-25T09:19:52Z</time>
      </trkpt>
      <trkpt lat="49.46285" lon="5.74912">
        <ele>377.45483398438</ele>
        <time>2017-06-25T09:20:09Z</time>
      </trkpt>
      <trkpt lat="49.46256" lon="5.74858">
        <ele>376.49353027344</ele>
        <time>2017-06-25T09:20:24Z</time>
      </trkpt>
      <trkpt lat="49.46244" lon="5.74812">
        <ele>375.53210449219</ele>
        <time>2017-06-25T09:20:35Z</time>
      </trkpt>
      <trkpt lat="49.4627" lon="5.74767">
        <ele>374.09008789062</ele>
        <time>2017-06-25T09:20:48Z</time>
      </trkpt>
      <trkpt lat="49.46331" lon="5.74693">
        <ele>366.88024902344</ele>
        <time>2017-06-25T09:21:02Z</time>
      </trkpt>
      <trkpt lat="49.46376" lon="5.74643">
        <ele>364.47692871094</ele>
        <time>2017-06-25T09:21:09Z</time>
      </trkpt>
      <trkpt lat="49.46415" lon="5.74623">
        <ele>363.03503417969</ele>
        <time>2017-06-25T09:21:15Z</time>
      </trkpt>
      <trkpt lat="49.46439" lon="5.74621">
        <ele>362.55432128906</ele>
        <time>2017-06-25T09:21:19Z</time>
      </trkpt>
      <trkpt lat="49.46468" lon="5.74609">
        <ele>360.15112304688</ele>
        <time>2017-06-25T09:21:24Z</time>
      </trkpt>
      <trkpt lat="49.46534" lon="5.74562">
        <ele>357.74780273438</ele>
        <time>2017-06-25T09:21:39Z</time>
      </trkpt>
      <trkpt lat="49.46542" lon="5.74555">
        <ele>357.26708984375</ele>
        <time>2017-06-25T09:21:41Z</time>
      </trkpt>
      <trkpt lat="49.4661" lon="5.74513">
        <ele>356.78637695312</ele>
        <time>2017-06-25T09:21:59Z</time>
      </trkpt>
      <trkpt lat="49.46692" lon="5.74467">
        <ele>354.86376953125</ele>
        <time>2017-06-25T09:22:19Z</time>
      </trkpt>
      <trkpt lat="49.46748" lon="5.74453">
        <ele>353.421875</ele>
        <time>2017-06-25T09:22:33Z</time>
      </trkpt>
      <trkpt lat="49.46803" lon="5.74452">
        <ele>356.30578613281</ele>
        <time>2017-06-25T09:22:49Z</time>
      </trkpt>
      <trkpt lat="49.46842" lon="5.74451">
        <ele>356.30578613281</ele>
        <time>2017-06-25T09:23:02Z</time>
      </trkpt>
      <trkpt lat="49.46908" lon="5.74455">
        <ele>357.26708984375</ele>
        <time>2017-06-25T09:23:26Z</time>
      </trkpt>
      <trkpt lat="49.46951" lon="5.7445">
        <ele>364.47692871094</ele>
        <time>2017-06-25T09:23:43Z</time>
      </trkpt>
      <trkpt lat="49.46988" lon="5.74442">
        <ele>370.7255859375</ele>
        <time>2017-06-25T09:23:59Z</time>
      </trkpt>
      <trkpt lat="49.4703" lon="5.74431">
        <ele>374.09008789062</ele>
        <time>2017-06-25T09:24:18Z</time>
      </trkpt>
      <trkpt lat="49.47066" lon="5.74417">
        <ele>376.01281738281</ele>
        <time>2017-06-25T09:24:33Z</time>
      </trkpt>
      <trkpt lat="49.47107" lon="5.74405">
        <ele>376.49353027344</ele>
        <time>2017-06-25T09:24:49Z</time>
      </trkpt>
      <trkpt lat="49.47112" lon="5.74404">
        <ele>377.93542480469</ele>
        <time>2017-06-25T09:25:00Z</time>
      </trkpt>
      <trkpt lat="49.47112" lon="5.74402">
        <ele>380.33874511719</ele>
        <time>2017-06-25T09:25:44Z</time>
      </trkpt>
      <trkpt lat="49.47111" lon="5.74393">
        <ele>380.81945800781</ele>
        <time>2017-06-25T09:25:47Z</time>
      </trkpt>
      <trkpt lat="49.47126" lon="5.74321">
        <ele>380.33874511719</ele>
        <time>2017-06-25T09:26:03Z</time>
      </trkpt>
      <trkpt lat="49.47134" lon="5.743">
        <ele>380.33874511719</ele>
        <time>2017-06-25T09:26:08Z</time>
      </trkpt>
      <trkpt lat="49.47146" lon="5.74302">
        <ele>379.85803222656</ele>
        <time>2017-06-25T09:26:13Z</time>
      </trkpt>
      <trkpt lat="49.47194" lon="5.74313">
        <ele>376.01281738281</ele>
        <time>2017-06-25T09:26:30Z</time>
      </trkpt>
      <trkpt lat="49.4724" lon="5.74303">
        <ele>376.01281738281</ele>
        <time>2017-06-25T09:26:43Z</time>
      </trkpt>
      <trkpt lat="49.47299" lon="5.74289">
        <ele>373.60949707031</ele>
        <time>2017-06-25T09:26:58Z</time>
      </trkpt>
      <trkpt lat="49.47379" lon="5.7427">
        <ele>374.57080078125</ele>
        <time>2017-06-25T09:27:17Z</time>
      </trkpt>
      <trkpt lat="49.47446" lon="5.74255">
        <ele>368.80297851562</ele>
        <time>2017-06-25T09:27:34Z</time>
      </trkpt>
      <trkpt lat="49.47466" lon="5.74256">
        <ele>367.84155273438</ele>
        <time>2017-06-25T09:27:38Z</time>
      </trkpt>
      <trkpt lat="49.4749" lon="5.74262">
        <ele>366.88024902344</ele>
        <time>2017-06-25T09:27:42Z</time>
      </trkpt>
      <trkpt lat="49.47553" lon="5.74293">
        <ele>364.95764160156</ele>
        <time>2017-06-25T09:27:50Z</time>
      </trkpt>
      <trkpt lat="49.47603" lon="5.74291">
        <ele>360.15112304688</ele>
        <time>2017-06-25T09:27:55Z</time>
      </trkpt>
      <trkpt lat="49.47719" lon="5.74254">
        <ele>350.05725097656</ele>
        <time>2017-06-25T09:28:06Z</time>
      </trkpt>
      <trkpt lat="49.47809" lon="5.74224">
        <ele>349.09582519531</ele>
        <time>2017-06-25T09:28:16Z</time>
      </trkpt>
      <trkpt lat="49.47839" lon="5.7421">
        <ele>348.13464355469</ele>
        <time>2017-06-25T09:28:20Z</time>
      </trkpt>
      <trkpt lat="49.47964" lon="5.7414">
        <ele>346.21203613281</ele>
        <time>2017-06-25T09:28:36Z</time>
      </trkpt>
      <trkpt lat="49.48006" lon="5.74103">
        <ele>343.32788085938</ele>
        <time>2017-06-25T09:28:46Z</time>
      </trkpt>
      <trkpt lat="49.48068" lon="5.74123">
        <ele>341.4052734375</ele>
        <time>2017-06-25T09:28:57Z</time>
      </trkpt>
      <trkpt lat="49.48143" lon="5.74187">
        <ele>335.15673828125</ele>
        <time>2017-06-25T09:29:07Z</time>
      </trkpt>
      <trkpt lat="49.48163" lon="5.74208">
        <ele>333.71472167969</ele>
        <time>2017-06-25T09:29:10Z</time>
      </trkpt>
      <trkpt lat="49.48189" lon="5.74202">
        <ele>335.63732910156</ele>
        <time>2017-06-25T09:29:14Z</time>
      </trkpt>
      <trkpt lat="49.48232" lon="5.74156">
        <ele>333.71472167969</ele>
        <time>2017-06-25T09:29:23Z</time>
      </trkpt>
      <trkpt lat="49.48307" lon="5.74066">
        <ele>334.19543457031</ele>
        <time>2017-06-25T09:29:41Z</time>
      </trkpt>
      <trkpt lat="49.48318" lon="5.74051">
        <ele>333.71472167969</ele>
        <time>2017-06-25T09:29:44Z</time>
      </trkpt>
      <trkpt lat="49.48329" lon="5.74038">
        <ele>333.23413085938</ele>
        <time>2017-06-25T09:29:47Z</time>
      </trkpt>
      <trkpt lat="49.48339" lon="5.74031">
        <ele>332.27282714844</ele>
        <time>2017-06-25T09:29:50Z</time>
      </trkpt>
      <trkpt lat="49.48355" lon="5.74017">
        <ele>332.75354003906</ele>
        <time>2017-06-25T09:29:54Z</time>
      </trkpt>
      <trkpt lat="49.48367" lon="5.74006">
        <ele>332.75354003906</ele>
        <time>2017-06-25T09:29:57Z</time>
      </trkpt>
      <trkpt lat="49.48387" lon="5.73996">
        <ele>331.79211425781</ele>
        <time>2017-06-25T09:30:02Z</time>
      </trkpt>
      <trkpt lat="49.48406" lon="5.73988">
        <ele>331.79211425781</ele>
        <time>2017-06-25T09:30:06Z</time>
      </trkpt>
      <trkpt lat="49.48432" lon="5.73992">
        <ele>332.27282714844</ele>
        <time>2017-06-25T09:30:11Z</time>
      </trkpt>
      <trkpt lat="49.48442" lon="5.73998">
        <ele>333.23413085938</ele>
        <time>2017-06-25T09:30:13Z</time>
      </trkpt>
      <trkpt lat="49.48452" lon="5.74009">
        <ele>334.67614746094</ele>
        <time>2017-06-25T09:30:15Z</time>
      </trkpt>
      <trkpt lat="49.48472" lon="5.74048">
        <ele>334.67614746094</ele>
        <time>2017-06-25T09:30:21Z</time>
      </trkpt>
      <trkpt lat="49.48511" lon="5.74086">
        <ele>331.3115234375</ele>
        <time>2017-06-25T09:30:28Z</time>
      </trkpt>
      <trkpt lat="49.48569" lon="5.74095">
        <ele>327.46618652344</ele>
        <time>2017-06-25T09:30:35Z</time>
      </trkpt>
      <trkpt lat="49.48599" lon="5.74124">
        <ele>322.17895507812</ele>
        <time>2017-06-25T09:30:39Z</time>
      </trkpt>
      <trkpt lat="49.48661" lon="5.74135">
        <ele>315.44982910156</ele>
        <time>2017-06-25T09:30:46Z</time>
      </trkpt>
      <trkpt lat="49.48701" lon="5.74109">
        <ele>311.12377929688</ele>
        <time>2017-06-25T09:30:51Z</time>
      </trkpt>
      <trkpt lat="49.48745" lon="5.7407">
        <ele>308.72045898438</ele>
        <time>2017-06-25T09:31:01Z</time>
      </trkpt>
      <trkpt lat="49.4876" lon="5.74056">
        <ele>309.201171875</ele>
        <time>2017-06-25T09:31:07Z</time>
      </trkpt>
      <trkpt lat="49.48763" lon="5.74049">
        <ele>309.68188476562</ele>
        <time>2017-06-25T09:31:10Z</time>
      </trkpt>
      <trkpt lat="49.48806" lon="5.74005">
        <ele>310.64306640625</ele>
        <time>2017-06-25T09:31:21Z</time>
      </trkpt>
      <trkpt lat="49.48853" lon="5.7393">
        <ele>312.08520507812</ele>
        <time>2017-06-25T09:31:34Z</time>
      </trkpt>
      <trkpt lat="49.48882" lon="5.73858">
        <ele>313.52722167969</ele>
        <time>2017-06-25T09:31:45Z</time>
      </trkpt>
      <trkpt lat="49.48911" lon="5.73755">
        <ele>314.48840332031</ele>
        <time>2017-06-25T09:31:59Z</time>
      </trkpt>
      <trkpt lat="49.48926" lon="5.73677">
        <ele>313.04650878906</ele>
        <time>2017-06-25T09:32:10Z</time>
      </trkpt>
      <trkpt lat="49.48923" lon="5.73629">
        <ele>312.08520507812</ele>
        <time>2017-06-25T09:32:17Z</time>
      </trkpt>
      <trkpt lat="49.48891" lon="5.73548">
        <ele>309.201171875</ele>
        <time>2017-06-25T09:32:29Z</time>
      </trkpt>
      <trkpt lat="49.48884" lon="5.73538">
        <ele>307.75927734375</ele>
        <time>2017-06-25T09:32:39Z</time>
      </trkpt>
      <trkpt lat="49.48864" lon="5.73502">
        <ele>306.7978515625</ele>
        <time>2017-06-25T09:32:54Z</time>
      </trkpt>
      <trkpt lat="49.48859" lon="5.73488">
        <ele>306.7978515625</ele>
        <time>2017-06-25T09:32:57Z</time>
      </trkpt>
      <trkpt lat="49.48867" lon="5.73467">
        <ele>305.83666992188</ele>
        <time>2017-06-25T09:33:03Z</time>
      </trkpt>
      <trkpt lat="49.48879" lon="5.73405">
        <ele>305.83666992188</ele>
        <time>2017-06-25T09:33:13Z</time>
      </trkpt>
      <trkpt lat="49.48894" lon="5.73348">
        <ele>306.31726074219</ele>
        <time>2017-06-25T09:33:26Z</time>
      </trkpt>
      <trkpt lat="49.48903" lon="5.73289">
        <ele>305.83666992188</ele>
        <time>2017-06-25T09:33:40Z</time>
      </trkpt>
      <trkpt lat="49.48897" lon="5.73233">
        <ele>306.31726074219</ele>
        <time>2017-06-25T09:33:50Z</time>
      </trkpt>
      <trkpt lat="49.48893" lon="5.73197">
        <ele>307.27856445312</ele>
        <time>2017-06-25T09:33:59Z</time>
      </trkpt>
      <trkpt lat="49.48903" lon="5.73127">
        <ele>305.83666992188</ele>
        <time>2017-06-25T09:34:08Z</time>
      </trkpt>
      <trkpt lat="49.48905" lon="5.73104">
        <ele>303.91394042969</ele>
        <time>2017-06-25T09:34:12Z</time>
      </trkpt>
      <trkpt lat="49.4891" lon="5.73086">
        <ele>303.91394042969</ele>
        <time>2017-06-25T09:34:17Z</time>
      </trkpt>
      <trkpt lat="49.48925" lon="5.73035">
        <ele>301.02990722656</ele>
        <time>2017-06-25T09:34:26Z</time>
      </trkpt>
      <trkpt lat="49.48932" lon="5.73017">
        <ele>300.06872558594</ele>
        <time>2017-06-25T09:34:29Z</time>
      </trkpt>
      <trkpt lat="49.48937" lon="5.7301">
        <ele>298.62670898438</ele>
        <time>2017-06-25T09:34:31Z</time>
      </trkpt>
      <trkpt lat="49.48948" lon="5.72975">
        <ele>298.14611816406</ele>
        <time>2017-06-25T09:34:35Z</time>
      </trkpt>
      <trkpt lat="49.48967" lon="5.72937">
        <ele>295.74267578125</ele>
        <time>2017-06-25T09:34:39Z</time>
      </trkpt>
      <trkpt lat="49.49006" lon="5.72869">
        <ele>292.37817382812</ele>
        <time>2017-06-25T09:34:45Z</time>
      </trkpt>
      <trkpt lat="49.48988" lon="5.72835">
        <ele>287.57141113281</ele>
        <time>2017-06-25T09:34:52Z</time>
      </trkpt>
      <trkpt lat="49.48951" lon="5.72784">
        <ele>284.68762207031</ele>
        <time>2017-06-25T09:35:05Z</time>
      </trkpt>
      <trkpt lat="49.48917" lon="5.72739">
        <ele>278.91967773438</ele>
        <time>2017-06-25T09:35:11Z</time>
      </trkpt>
      <trkpt lat="49.48897" lon="5.72708">
        <ele>276.51635742188</ele>
        <time>2017-06-25T09:35:14Z</time>
      </trkpt>
      <trkpt lat="49.48868" lon="5.72681">
        <ele>276.03564453125</ele>
        <time>2017-06-25T09:35:21Z</time>
      </trkpt>
      <trkpt lat="49.48861" lon="5.72683">
        <ele>275.55505371094</ele>
        <time>2017-06-25T09:35:45Z</time>
      </trkpt>
      <trkpt lat="49.48843" lon="5.72681">
        <ele>275.07446289062</ele>
        <time>2017-06-25T09:36:00Z</time>
      </trkpt>
      <trkpt lat="49.4884" lon="5.72679">
        <ele>275.07446289062</ele>
        <time>2017-06-25T09:36:02Z</time>
      </trkpt>
      <trkpt lat="49.48836" lon="5.72672">
        <ele>275.07446289062</ele>
        <time>2017-06-25T09:36:06Z</time>
      </trkpt>
      <trkpt lat="49.48834" lon="5.72662">
        <ele>275.07446289062</ele>
        <time>2017-06-25T09:36:08Z</time>
      </trkpt>
      <trkpt lat="49.48814" lon="5.7262">
        <ele>275.07446289062</ele>
        <time>2017-06-25T09:36:13Z</time>
      </trkpt>
      <trkpt lat="49.48783" lon="5.72588">
        <ele>275.07446289062</ele>
        <time>2017-06-25T09:36:17Z</time>
      </trkpt>
      <trkpt lat="49.48744" lon="5.72572">
        <ele>275.07446289062</ele>
        <time>2017-06-25T09:36:21Z</time>
      </trkpt>
      <trkpt lat="49.48682" lon="5.72531">
        <ele>274.11303710938</ele>
        <time>2017-06-25T09:36:30Z</time>
      </trkpt>
      <trkpt lat="49.48646" lon="5.72479">
        <ele>276.03564453125</ele>
        <time>2017-06-25T09:36:40Z</time>
      </trkpt>
      <trkpt lat="49.48634" lon="5.72447">
        <ele>276.03564453125</ele>
        <time>2017-06-25T09:36:45Z</time>
      </trkpt>
      <trkpt lat="49.48628" lon="5.72423">
        <ele>276.03564453125</ele>
        <time>2017-06-25T09:36:48Z</time>
      </trkpt>
      <trkpt lat="49.48605" lon="5.72325">
        <ele>275.55505371094</ele>
        <time>2017-06-25T09:36:57Z</time>
      </trkpt>
      <trkpt lat="49.48594" lon="5.72294">
        <ele>275.07446289062</ele>
        <time>2017-06-25T09:37:00Z</time>
      </trkpt>
      <trkpt lat="49.48584" lon="5.72233">
        <ele>274.59375</ele>
        <time>2017-06-25T09:37:10Z</time>
      </trkpt>
      <trkpt lat="49.48573" lon="5.72173">
        <ele>276.51635742188</ele>
        <time>2017-06-25T09:37:19Z</time>
      </trkpt>
      <trkpt lat="49.48574" lon="5.72148">
        <ele>276.9970703125</ele>
        <time>2017-06-25T09:37:26Z</time>
      </trkpt>
      <trkpt lat="49.48573" lon="5.72084">
        <ele>277.47766113281</ele>
        <time>2017-06-25T09:37:39Z</time>
      </trkpt>
      <trkpt lat="49.48575" lon="5.72027">
        <ele>277.47766113281</ele>
        <time>2017-06-25T09:37:50Z</time>
      </trkpt>
      <trkpt lat="49.48585" lon="5.71986">
        <ele>278.43896484375</ele>
        <time>2017-06-25T09:37:58Z</time>
      </trkpt>
      <trkpt lat="49.48594" lon="5.71926">
        <ele>275.55505371094</ele>
        <time>2017-06-25T09:38:13Z</time>
      </trkpt>
      <trkpt lat="49.48608" lon="5.71873">
        <ele>274.59375</ele>
        <time>2017-06-25T09:38:24Z</time>
      </trkpt>
      <trkpt lat="49.48614" lon="5.7186">
        <ele>273.63244628906</ele>
        <time>2017-06-25T09:38:28Z</time>
      </trkpt>
      <trkpt lat="49.48633" lon="5.71817">
        <ele>272.67114257812</ele>
        <time>2017-06-25T09:38:42Z</time>
      </trkpt>
      <trkpt lat="49.48648" lon="5.71802">
        <ele>272.1904296875</ele>
        <time>2017-06-25T09:38:47Z</time>
      </trkpt>
      <trkpt lat="49.48664" lon="5.71785">
        <ele>269.787109375</ele>
        <time>2017-06-25T09:38:51Z</time>
      </trkpt>
      <trkpt lat="49.48705" lon="5.7175">
        <ele>269.30651855469</ele>
        <time>2017-06-25T09:39:04Z</time>
      </trkpt>
      <trkpt lat="49.48752" lon="5.71719">
        <ele>268.82580566406</ele>
        <time>2017-06-25T09:39:15Z</time>
      </trkpt>
      <trkpt lat="49.48808" lon="5.71708">
        <ele>271.22912597656</ele>
        <time>2017-06-25T09:39:25Z</time>
      </trkpt>
      <trkpt lat="49.48827" lon="5.71709">
        <ele>273.15185546875</ele>
        <time>2017-06-25T09:39:29Z</time>
      </trkpt>
      <trkpt lat="49.48855" lon="5.71705">
        <ele>278.91967773438</ele>
        <time>2017-06-25T09:39:40Z</time>
      </trkpt>
      <trkpt lat="49.48867" lon="5.717">
        <ele>282.28430175781</ele>
        <time>2017-06-25T09:39:44Z</time>
      </trkpt>
      <trkpt lat="49.48888" lon="5.71693">
        <ele>282.76501464844</ele>
        <time>2017-06-25T09:39:52Z</time>
      </trkpt>
      <trkpt lat="49.48917" lon="5.71691">
        <ele>285.64880371094</ele>
        <time>2017-06-25T09:40:02Z</time>
      </trkpt>
      <trkpt lat="49.48936" lon="5.71674">
        <ele>283.72619628906</ele>
        <time>2017-06-25T09:40:12Z</time>
      </trkpt>
      <trkpt lat="49.48937" lon="5.71672">
        <ele>283.24560546875</ele>
        <time>2017-06-25T09:40:13Z</time>
      </trkpt>
      <trkpt lat="49.48953" lon="5.71627">
        <ele>282.28430175781</ele>
        <time>2017-06-25T09:40:24Z</time>
      </trkpt>
      <trkpt lat="49.4895" lon="5.71618">
        <ele>280.36169433594</ele>
        <time>2017-06-25T09:40:29Z</time>
      </trkpt>
      <trkpt lat="49.48946" lon="5.71611">
        <ele>278.91967773438</ele>
        <time>2017-06-25T09:40:33Z</time>
      </trkpt>
      <trkpt lat="49.48926" lon="5.71574">
        <ele>275.07446289062</ele>
        <time>2017-06-25T09:40:46Z</time>
      </trkpt>
      <trkpt lat="49.48919" lon="5.71567">
        <ele>275.07446289062</ele>
        <time>2017-06-25T09:40:51Z</time>
      </trkpt>
      <trkpt lat="49.48913" lon="5.71533">
        <ele>270.74841308594</ele>
        <time>2017-06-25T09:41:05Z</time>
      </trkpt>
      <trkpt lat="49.48908" lon="5.71524">
        <ele>274.11303710938</ele>
        <time>2017-06-25T09:45:56Z</time>
      </trkpt>
      <trkpt lat="49.48907" lon="5.7152">
        <ele>273.63244628906</ele>
        <time>2017-06-25T09:46:00Z</time>
      </trkpt>
      <trkpt lat="49.48907" lon="5.71506">
        <ele>273.63244628906</ele>
        <time>2017-06-25T09:46:05Z</time>
      </trkpt>
      <trkpt lat="49.48909" lon="5.71502">
        <ele>273.15185546875</ele>
        <time>2017-06-25T09:46:07Z</time>
      </trkpt>
      <trkpt lat="49.48912" lon="5.71487">
        <ele>273.15185546875</ele>
        <time>2017-06-25T09:46:11Z</time>
      </trkpt>
      <trkpt lat="49.48891" lon="5.71411">
        <ele>274.11303710938</ele>
        <time>2017-06-25T09:46:21Z</time>
      </trkpt>
      <trkpt lat="49.48861" lon="5.71375">
        <ele>274.11303710938</ele>
        <time>2017-06-25T09:46:26Z</time>
      </trkpt>
      <trkpt lat="49.48809" lon="5.71311">
        <ele>274.59375</ele>
        <time>2017-06-25T09:46:34Z</time>
      </trkpt>
      <trkpt lat="49.48777" lon="5.71266">
        <ele>276.03564453125</ele>
        <time>2017-06-25T09:46:43Z</time>
      </trkpt>
      <trkpt lat="49.48761" lon="5.71241">
        <ele>276.9970703125</ele>
        <time>2017-06-25T09:46:46Z</time>
      </trkpt>
      <trkpt lat="49.48734" lon="5.71205">
        <ele>278.43896484375</ele>
        <time>2017-06-25T09:46:50Z</time>
      </trkpt>
      <trkpt lat="49.48717" lon="5.71186">
        <ele>279.40026855469</ele>
        <time>2017-06-25T09:46:53Z</time>
      </trkpt>
      <trkpt lat="49.48702" lon="5.71164">
        <ele>279.880859375</ele>
        <time>2017-06-25T09:46:56Z</time>
      </trkpt>
      <trkpt lat="49.48687" lon="5.71145">
        <ele>280.36169433594</ele>
        <time>2017-06-25T09:46:59Z</time>
      </trkpt>
      <trkpt lat="49.48667" lon="5.71103">
        <ele>280.84240722656</ele>
        <time>2017-06-25T09:47:04Z</time>
      </trkpt>
      <trkpt lat="49.48646" lon="5.71022">
        <ele>280.84240722656</ele>
        <time>2017-06-25T09:47:10Z</time>
      </trkpt>
      <trkpt lat="49.48609" lon="5.70851">
        <ele>276.51635742188</ele>
        <time>2017-06-25T09:47:19Z</time>
      </trkpt>
      <trkpt lat="49.48604" lon="5.70812">
        <ele>273.63244628906</ele>
        <time>2017-06-25T09:47:21Z</time>
      </trkpt>
      <trkpt lat="49.48583" lon="5.70728">
        <ele>270.74841308594</ele>
        <time>2017-06-25T09:47:27Z</time>
      </trkpt>
      <trkpt lat="49.48576" lon="5.70711">
        <ele>269.787109375</ele>
        <time>2017-06-25T09:47:29Z</time>
      </trkpt>
      <trkpt lat="49.48559" lon="5.70689">
        <ele>260.65454101562</ele>
        <time>2017-06-25T09:47:33Z</time>
      </trkpt>
      <trkpt lat="49.48553" lon="5.70686">
        <ele>259.21264648438</ele>
        <time>2017-06-25T09:47:35Z</time>
      </trkpt>
      <trkpt lat="49.48541" lon="5.70677">
        <ele>255.84802246094</ele>
        <time>2017-06-25T09:47:49Z</time>
      </trkpt>
      <trkpt lat="49.48528" lon="5.70667">
        <ele>252.4833984375</ele>
        <time>2017-06-25T09:48:10Z</time>
      </trkpt>
      <trkpt lat="49.48505" lon="5.70631">
        <ele>250.56079101562</ele>
        <time>2017-06-25T09:48:25Z</time>
      </trkpt>
      <trkpt lat="49.48481" lon="5.706">
        <ele>252.00280761719</ele>
        <time>2017-06-25T09:48:40Z</time>
      </trkpt>
      <trkpt lat="49.48463" lon="5.70575">
        <ele>254.40600585938</ele>
        <time>2017-06-25T09:48:51Z</time>
      </trkpt>
      <trkpt lat="49.48437" lon="5.7054">
        <ele>259.693359375</ele>
        <time>2017-06-25T09:49:07Z</time>
      </trkpt>
      <trkpt lat="49.48415" lon="5.70504">
        <ele>263.05786132812</ele>
        <time>2017-06-25T09:49:21Z</time>
      </trkpt>
      <trkpt lat="49.48391" lon="5.70468">
        <ele>265.94189453125</ele>
        <time>2017-06-25T09:49:33Z</time>
      </trkpt>
      <trkpt lat="49.48354" lon="5.70447">
        <ele>261.61596679688</ele>
        <time>2017-06-25T09:49:44Z</time>
      </trkpt>
      <trkpt lat="49.48338" lon="5.70443">
        <ele>258.25134277344</ele>
        <time>2017-06-25T09:49:48Z</time>
      </trkpt>
      <trkpt lat="49.48332" lon="5.7039">
        <ele>249.11877441406</ele>
        <time>2017-06-25T09:49:57Z</time>
      </trkpt>
      <trkpt lat="49.48335" lon="5.70365">
        <ele>242.87023925781</ele>
        <time>2017-06-25T09:50:07Z</time>
      </trkpt>
      <trkpt lat="49.48334" lon="5.70364">
        <ele>242.87023925781</ele>
        <time>2017-06-25T09:50:46Z</time>
      </trkpt>
      <trkpt lat="49.48331" lon="5.7036">
        <ele>242.3896484375</ele>
        <time>2017-06-25T09:50:48Z</time>
      </trkpt>
      <trkpt lat="49.48296" lon="5.70365">
        <ele>241.90893554688</ele>
        <time>2017-06-25T09:51:02Z</time>
      </trkpt>
      <trkpt lat="49.48257" lon="5.70383">
        <ele>244.79284667969</ele>
        <time>2017-06-25T09:51:17Z</time>
      </trkpt>
      <trkpt lat="49.48219" lon="5.70413">
        <ele>249.59948730469</ele>
        <time>2017-06-25T09:51:33Z</time>
      </trkpt>
      <trkpt lat="49.48182" lon="5.70444">
        <ele>252.4833984375</ele>
        <time>2017-06-25T09:51:48Z</time>
      </trkpt>
      <trkpt lat="49.48156" lon="5.70453">
        <ele>253.92541503906</ele>
        <time>2017-06-25T09:51:59Z</time>
      </trkpt>
      <trkpt lat="49.48129" lon="5.70457">
        <ele>252.00280761719</ele>
        <time>2017-06-25T09:52:12Z</time>
      </trkpt>
      <trkpt lat="49.48094" lon="5.70448">
        <ele>250.08020019531</ele>
        <time>2017-06-25T09:52:25Z</time>
      </trkpt>
      <trkpt lat="49.48092" lon="5.70447">
        <ele>250.56079101562</ele>
        <time>2017-06-25T09:52:26Z</time>
      </trkpt>
      <trkpt lat="49.48062" lon="5.70442">
        <ele>249.59948730469</ele>
        <time>2017-06-25T09:52:38Z</time>
      </trkpt>
      <trkpt lat="49.4803" lon="5.70432">
        <ele>250.08020019531</ele>
        <time>2017-06-25T09:52:51Z</time>
      </trkpt>
      <trkpt lat="49.47992" lon="5.70412">
        <ele>252.4833984375</ele>
        <time>2017-06-25T09:53:07Z</time>
      </trkpt>
      <trkpt lat="49.47959" lon="5.70385">
        <ele>255.36730957031</ele>
        <time>2017-06-25T09:53:22Z</time>
      </trkpt>
      <trkpt lat="49.47943" lon="5.70364">
        <ele>255.36730957031</ele>
        <time>2017-06-25T09:53:34Z</time>
      </trkpt>
      <trkpt lat="49.47939" lon="5.70363">
        <ele>255.84802246094</ele>
        <time>2017-06-25T09:53:36Z</time>
      </trkpt>
      <trkpt lat="49.47927" lon="5.70341">
        <ele>256.80932617188</ele>
        <time>2017-06-25T09:53:44Z</time>
      </trkpt>
      <trkpt lat="49.47902" lon="5.70292">
        <ele>252.96398925781</ele>
        <time>2017-06-25T09:54:00Z</time>
      </trkpt>
      <trkpt lat="49.47892" lon="5.70275">
        <ele>251.52209472656</ele>
        <time>2017-06-25T09:54:06Z</time>
      </trkpt>
      <trkpt lat="49.47867" lon="5.70233">
        <ele>245.75415039062</ele>
        <time>2017-06-25T09:54:22Z</time>
      </trkpt>
      <trkpt lat="49.47866" lon="5.70228">
        <ele>245.75415039062</ele>
        <time>2017-06-25T09:54:23Z</time>
      </trkpt>
      <trkpt lat="49.47858" lon="5.70188">
        <ele>245.2734375</ele>
        <time>2017-06-25T09:54:34Z</time>
      </trkpt>
      <trkpt lat="49.47849" lon="5.7013">
        <ele>245.2734375</ele>
        <time>2017-06-25T09:54:49Z</time>
      </trkpt>
      <trkpt lat="49.47838" lon="5.70074">
        <ele>245.2734375</ele>
        <time>2017-06-25T09:55:05Z</time>
      </trkpt>
      <trkpt lat="49.47831" lon="5.70042">
        <ele>245.75415039062</ele>
        <time>2017-06-25T09:55:15Z</time>
      </trkpt>
      <trkpt lat="49.47826" lon="5.7001">
        <ele>246.23486328125</ele>
        <time>2017-06-25T09:55:25Z</time>
      </trkpt>
      <trkpt lat="49.47815" lon="5.6998">
        <ele>247.19604492188</ele>
        <time>2017-06-25T09:55:36Z</time>
      </trkpt>
      <trkpt lat="49.47814" lon="5.69979">
        <ele>247.6767578125</ele>
        <time>2017-06-25T09:55:37Z</time>
      </trkpt>
      <trkpt lat="49.47806" lon="5.69974">
        <ele>252.00280761719</ele>
        <time>2017-06-25T09:55:42Z</time>
      </trkpt>
      <trkpt lat="49.478" lon="5.69974">
        <ele>255.36730957031</ele>
        <time>2017-06-25T09:55:45Z</time>
      </trkpt>
      <trkpt lat="49.47793" lon="5.6997">
        <ele>262.09655761719</ele>
        <time>2017-06-25T09:55:51Z</time>
      </trkpt>
      <trkpt lat="49.4779" lon="5.69969">
        <ele>264.01928710938</ele>
        <time>2017-06-25T09:55:53Z</time>
      </trkpt>
      <trkpt lat="49.47784" lon="5.69965">
        <ele>268.82580566406</ele>
        <time>2017-06-25T09:55:59Z</time>
      </trkpt>
      <trkpt lat="49.47782" lon="5.69962">
        <ele>267.86450195312</ele>
        <time>2017-06-25T09:56:01Z</time>
      </trkpt>
      <trkpt lat="49.47777" lon="5.69958">
        <ele>265.46130371094</ele>
        <time>2017-06-25T09:56:06Z</time>
      </trkpt>
      <trkpt lat="49.47772" lon="5.69953">
        <ele>264.49987792969</ele>
        <time>2017-06-25T09:56:12Z</time>
      </trkpt>
      <trkpt lat="49.47768" lon="5.69947">
        <ele>264.98059082031</ele>
        <time>2017-06-25T09:56:16Z</time>
      </trkpt>
      <trkpt lat="49.47754" lon="5.69922">
        <ele>276.03564453125</ele>
        <time>2017-06-25T09:56:30Z</time>
      </trkpt>
      <trkpt lat="49.47751" lon="5.69918">
        <ele>277.95825195312</ele>
        <time>2017-06-25T09:56:33Z</time>
      </trkpt>
      <trkpt lat="49.47742" lon="5.69907">
        <ele>285.64880371094</ele>
        <time>2017-06-25T09:56:41Z</time>
      </trkpt>
      <trkpt lat="49.47735" lon="5.69908">
        <ele>289.494140625</ele>
        <time>2017-06-25T09:56:46Z</time>
      </trkpt>
      <trkpt lat="49.47726" lon="5.69899">
        <ele>293.33935546875</ele>
        <time>2017-06-25T09:56:53Z</time>
      </trkpt>
      <trkpt lat="49.47719" lon="5.69896">
        <ele>295.74267578125</ele>
        <time>2017-06-25T09:56:57Z</time>
      </trkpt>
      <trkpt lat="49.47707" lon="5.69881">
        <ele>299.58801269531</ele>
        <time>2017-06-25T09:57:09Z</time>
      </trkpt>
      <trkpt lat="49.47698" lon="5.69874">
        <ele>303.91394042969</ele>
        <time>2017-06-25T09:57:21Z</time>
      </trkpt>
      <trkpt lat="49.47698" lon="5.69862">
        <ele>304.87524414062</ele>
        <time>2017-06-25T09:57:34Z</time>
      </trkpt>
      <trkpt lat="49.47694" lon="5.69867">
        <ele>304.87524414062</ele>
        <time>2017-06-25T09:57:40Z</time>
      </trkpt>
      <trkpt lat="49.47689" lon="5.69857">
        <ele>304.87524414062</ele>
        <time>2017-06-25T09:58:01Z</time>
      </trkpt>
      <trkpt lat="49.47688" lon="5.69855">
        <ele>304.87524414062</ele>
        <time>2017-06-25T09:58:16Z</time>
      </trkpt>
      <trkpt lat="49.47658" lon="5.69823">
        <ele>307.27856445312</ele>
        <time>2017-06-25T09:58:30Z</time>
      </trkpt>
      <trkpt lat="49.47619" lon="5.69787">
        <ele>308.72045898438</ele>
        <time>2017-06-25T09:58:45Z</time>
      </trkpt>
      <trkpt lat="49.47572" lon="5.69748">
        <ele>309.68188476562</ele>
        <time>2017-06-25T09:59:02Z</time>
      </trkpt>
      <trkpt lat="49.47541" lon="5.69719">
        <ele>310.16247558594</ele>
        <time>2017-06-25T09:59:15Z</time>
      </trkpt>
      <trkpt lat="49.4752" lon="5.69679">
        <ele>314.96911621094</ele>
        <time>2017-06-25T09:59:28Z</time>
      </trkpt>
      <trkpt lat="49.47483" lon="5.69646">
        <ele>315.93041992188</ele>
        <time>2017-06-25T09:59:43Z</time>
      </trkpt>
      <trkpt lat="49.4744" lon="5.69663">
        <ele>320.25634765625</ele>
        <time>2017-06-25T09:59:55Z</time>
      </trkpt>
      <trkpt lat="49.47405" lon="5.69671">
        <ele>318.81433105469</ele>
        <time>2017-06-25T10:00:01Z</time>
      </trkpt>
      <trkpt lat="49.47387" lon="5.69678">
        <ele>318.33361816406</ele>
        <time>2017-06-25T10:00:04Z</time>
      </trkpt>
      <trkpt lat="49.47361" lon="5.69679">
        <ele>316.89172363281</ele>
        <time>2017-06-25T10:00:08Z</time>
      </trkpt>
      <trkpt lat="49.47264" lon="5.69722">
        <ele>316.89172363281</ele>
        <time>2017-06-25T10:00:25Z</time>
      </trkpt>
      <trkpt lat="49.47246" lon="5.69733">
        <ele>316.89172363281</ele>
        <time>2017-06-25T10:00:28Z</time>
      </trkpt>
      <trkpt lat="49.47227" lon="5.69739">
        <ele>317.37243652344</ele>
        <time>2017-06-25T10:00:31Z</time>
      </trkpt>
      <trkpt lat="49.47136" lon="5.69803">
        <ele>313.04650878906</ele>
        <time>2017-06-25T10:00:46Z</time>
      </trkpt>
      <trkpt lat="49.47064" lon="5.69862">
        <ele>308.72045898438</ele>
        <time>2017-06-25T10:00:56Z</time>
      </trkpt>
      <trkpt lat="49.47043" lon="5.69916">
        <ele>306.31726074219</ele>
        <time>2017-06-25T10:01:01Z</time>
      </trkpt>
      <trkpt lat="49.47034" lon="5.69941">
        <ele>305.83666992188</ele>
        <time>2017-06-25T10:01:03Z</time>
      </trkpt>
      <trkpt lat="49.46993" lon="5.69962">
        <ele>303.91394042969</ele>
        <time>2017-06-25T10:01:09Z</time>
      </trkpt>
      <trkpt lat="49.4693" lon="5.69937">
        <ele>304.87524414062</ele>
        <time>2017-06-25T10:01:22Z</time>
      </trkpt>
      <trkpt lat="49.46907" lon="5.69929">
        <ele>306.31726074219</ele>
        <time>2017-06-25T10:01:27Z</time>
      </trkpt>
      <trkpt lat="49.4686" lon="5.69928">
        <ele>308.72045898438</ele>
        <time>2017-06-25T10:01:41Z</time>
      </trkpt>
      <trkpt lat="49.46814" lon="5.69975">
        <ele>311.6044921875</ele>
        <time>2017-06-25T10:01:59Z</time>
      </trkpt>
      <trkpt lat="49.46776" lon="5.7002">
        <ele>311.6044921875</ele>
        <time>2017-06-25T10:02:15Z</time>
      </trkpt>
      <trkpt lat="49.46758" lon="5.70036">
        <ele>311.12377929688</ele>
        <time>2017-06-25T10:02:22Z</time>
      </trkpt>
      <trkpt lat="49.46744" lon="5.7004">
        <ele>310.16247558594</ele>
        <time>2017-06-25T10:02:34Z</time>
      </trkpt>
      <trkpt lat="49.46744" lon="5.70039">
        <ele>310.16247558594</ele>
        <time>2017-06-25T10:02:43Z</time>
      </trkpt>
    </trkseg>
  </trk>
</gpx>